Wetterdaten: Dienstag, 22.03.2022
Datum Zeit Temp. Aussen Temp. o. S. Temp +5cm Feuchte Auss Luftdruck Regen Sonnenschein Regendauer Solar Windben Empfang
22.03.2022 00:00 11,1 C 10,0 C 6,7 C 71 % 1031,3 hPa 0,0 l/m 0 min 0 min 0 W/m 6,4 km/h (2 Bft) 97,87 %
22.03.2022 00:02 11,1 C 10,0 C 6,7 C 71 % 1031,3 hPa 0,0 l/m 0 min 0 min 0 W/m 6,4 km/h (2 Bft) 94,74 %
22.03.2022 00:04 11,1 C 10,0 C 6,7 C 71 % 1031,3 hPa 0,0 l/m 0 min 0 min 0 W/m 6,4 km/h (2 Bft) 97,87 %
22.03.2022 00:08 11,1 C 10,0 C 6,1 C 71 % 1031,3 hPa 0,0 l/m 0 min 0 min 0 W/m 12,9 km/h (3 Bft) 96,81 %
22.03.2022 00:10 11,1 C 10,0 C 6,1 C 71 % 1031,3 hPa 0,0 l/m 0 min 0 min 0 W/m 6,4 km/h (2 Bft) 97,87 %
22.03.2022 00:12 11,0 C 10,0 C 6,1 C 71 % 1031,3 hPa 0,0 l/m 0 min 0 min 0 W/m 6,4 km/h (2 Bft) 95,74 %
22.03.2022 00:14 11,0 C 10,0 C 6,1 C 71 % 1031,3 hPa 0,0 l/m 0 min 0 min 0 W/m 12,9 km/h (3 Bft) 95,74 %
22.03.2022 00:16 11,0 C 10,0 C 6,1 C 71 % 1031,4 hPa 0,0 l/m 0 min 0 min 0 W/m 12,9 km/h (3 Bft) 95,74 %
22.03.2022 00:18 10,9 C 10,0 C 6,1 C 71 % 1031,4 hPa 0,0 l/m 0 min 0 min 0 W/m 3,2 km/h (1 Bft) 95,74 %
22.03.2022 00:20 10,9 C 10,0 C 6,1 C 71 % 1031,4 hPa 0,0 l/m 0 min 0 min 0 W/m 12,9 km/h (3 Bft) 91,30 %
22.03.2022 00:22 10,9 C 10,0 C 6,1 C 70 % 1031,3 hPa 0,0 l/m 0 min 0 min 0 W/m 12,9 km/h (3 Bft) 95,74 %
22.03.2022 00:24 10,9 C 10,0 C 6,1 C 70 % 1031,4 hPa 0,0 l/m 0 min 0 min 0 W/m 6,4 km/h (2 Bft) 95,74 %
22.03.2022 00:26 10,9 C 10,0 C 6,1 C 70 % 1031,3 hPa 0,0 l/m 0 min 0 min 0 W/m 6,4 km/h (2 Bft) 93,62 %
22.03.2022 00:28 10,9 C 10,0 C 6,1 C 70 % 1031,3 hPa 0,0 l/m 0 min 0 min 0 W/m 6,4 km/h (2 Bft) 95,74 %
22.03.2022 00:30 10,8 C 10,0 C 6,1 C 70 % 1031,3 hPa 0,0 l/m 0 min 0 min 0 W/m 12,9 km/h (3 Bft) 100,00 %
22.03.2022 00:32 10,8 C 10,0 C 6,1 C 70 % 1031,3 hPa 0,0 l/m 0 min 0 min 0 W/m 6,4 km/h (2 Bft) 97,83 %
22.03.2022 00:34 10,8 C 10,0 C 6,1 C 70 % 1031,4 hPa 0,0 l/m 0 min 0 min 0 W/m 3,2 km/h (1 Bft) 97,87 %
22.03.2022 00:36 10,8 C 10,0 C 6,1 C 70 % 1031,3 hPa 0,0 l/m 0 min 0 min 0 W/m 9,7 km/h (2 Bft) 97,87 %
22.03.2022 00:38 10,8 C 10,0 C 6,1 C 70 % 1031,3 hPa 0,0 l/m 0 min 0 min 0 W/m 6,4 km/h (2 Bft) 97,87 %
22.03.2022 00:40 10,8 C 10,0 C 6,1 C 70 % 1031,4 hPa 0,0 l/m 0 min 0 min 0 W/m 6,4 km/h (2 Bft) 97,87 %
22.03.2022 00:42 10,8 C 10,0 C 6,1 C 70 % 1031,4 hPa 0,0 l/m 0 min 0 min 0 W/m 6,4 km/h (2 Bft) 97,87 %
22.03.2022 00:44 10,7 C 10,0 C 6,1 C 70 % 1031,4 hPa 0,0 l/m 0 min 0 min 0 W/m 9,7 km/h (2 Bft) 100,00 %
22.03.2022 00:46 10,7 C 9,4 C 6,1 C 70 % 1031,4 hPa 0,0 l/m 0 min 0 min 0 W/m 12,9 km/h (3 Bft) 100,00 %
22.03.2022 00:48 10,7 C 10,0 C 6,1 C 70 % 1031,5 hPa 0,0 l/m 0 min 0 min 0 W/m 6,4 km/h (2 Bft) 100,00 %
22.03.2022 00:50 10,7 C 10,0 C 6,1 C 70 % 1031,4 hPa 0,0 l/m 0 min 0 min 0 W/m 6,4 km/h (2 Bft) 100,00 %
22.03.2022 00:52 10,7 C 9,4 C 6,1 C 70 % 1031,5 hPa 0,0 l/m 0 min 0 min 0 W/m 9,7 km/h (2 Bft) 97,87 %
22.03.2022 00:54 10,7 C 10,0 C 6,1 C 70 % 1031,5 hPa 0,0 l/m 0 min 0 min 0 W/m 16,1 km/h (3 Bft) 97,87 %
22.03.2022 00:56 10,7 C 10,0 C 6,1 C 70 % 1031,5 hPa 0,0 l/m 0 min 0 min 0 W/m 6,4 km/h (2 Bft) 100,00 %
22.03.2022 00:58 10,7 C 9,4 C 6,1 C 70 % 1031,5 hPa 0,0 l/m 0 min 0 min 0 W/m 6,4 km/h (2 Bft) 95,74 %
22.03.2022 01:00 10,7 C 9,4 C 6,1 C 70 % 1031,6 hPa 0,0 l/m 0 min 0 min 0 W/m 12,9 km/h (3 Bft) 100,00 %
22.03.2022 01:02 10,7 C 9,4 C 6,1 C 70 % 1031,6 hPa 0,0 l/m 0 min 0 min 0 W/m 12,9 km/h (3 Bft) 100,00 %
22.03.2022 01:04 10,6 C 9,4 C 6,1 C 70 % 1031,5 hPa 0,0 l/m 0 min 0 min 0 W/m 12,9 km/h (3 Bft) 100,00 %
22.03.2022 01:06 10,6 C 9,4 C 6,1 C 70 % 1031,6 hPa 0,0 l/m 0 min 0 min 0 W/m 9,7 km/h (2 Bft) 100,00 %
22.03.2022 01:08 10,6 C 9,4 C 6,1 C 70 % 1031,5 hPa 0,0 l/m 0 min 0 min 0 W/m 9,7 km/h (2 Bft) 97,87 %
22.03.2022 01:10 10,6 C 9,4 C 5,6 C 70 % 1031,5 hPa 0,0 l/m 0 min 0 min 0 W/m 6,4 km/h (2 Bft) 95,74 %
22.03.2022 01:12 10,6 C 9,4 C 5,6 C 70 % 1031,6 hPa 0,0 l/m 0 min 0 min 0 W/m 6,4 km/h (2 Bft) 95,74 %
22.03.2022 01:14 10,6 C 9,4 C 5,6 C 70 % 1031,5 hPa 0,0 l/m 0 min 0 min 0 W/m 6,4 km/h (2 Bft) 97,87 %
22.03.2022 01:16 10,5 C 9,4 C 5,6 C 70 % 1031,6 hPa 0,0 l/m 0 min 0 min 0 W/m 9,7 km/h (2 Bft) 97,87 %
22.03.2022 01:18 10,5 C 9,4 C 5,6 C 70 % 1031,6 hPa 0,0 l/m 0 min 0 min 0 W/m 6,4 km/h (2 Bft) 97,83 %
22.03.2022 01:20 10,5 C 9,4 C 5,6 C 70 % 1031,6 hPa 0,0 l/m 0 min 0 min 0 W/m 12,9 km/h (3 Bft) 97,87 %
22.03.2022 01:22 10,4 C 9,4 C 5,6 C 70 % 1031,6 hPa 0,0 l/m 0 min 0 min 0 W/m 6,4 km/h (2 Bft) 95,74 %
22.03.2022 01:24 10,4 C 9,4 C 5,6 C 70 % 1031,6 hPa 0,0 l/m 0 min 0 min 0 W/m 6,4 km/h (2 Bft) 97,87 %
22.03.2022 01:26 10,4 C 9,4 C 5,6 C 70 % 1031,6 hPa 0,0 l/m 0 min 0 min 0 W/m 6,4 km/h (2 Bft) 93,62 %
22.03.2022 01:28 10,4 C 9,4 C 5,6 C 70 % 1031,6 hPa 0,0 l/m 0 min 0 min 0 W/m 12,9 km/h (3 Bft) 93,62 %
22.03.2022 01:30 10,3 C 9,4 C 5,6 C 70 % 1031,6 hPa 0,0 l/m 0 min 0 min 0 W/m 12,9 km/h (3 Bft) 97,83 %
22.03.2022 01:32 10,3 C 9,4 C 5,6 C 70 % 1031,6 hPa 0,0 l/m 0 min 0 min 0 W/m 12,9 km/h (3 Bft) 97,87 %
22.03.2022 01:34 10,3 C 9,4 C 5,6 C 69 % 1031,6 hPa 0,0 l/m 0 min 0 min 0 W/m 3,2 km/h (1 Bft) 95,74 %
22.03.2022 01:36 10,3 C 9,4 C 5,6 C 69 % 1031,6 hPa 0,0 l/m 0 min 0 min 0 W/m 12,9 km/h (3 Bft) 95,74 %
22.03.2022 01:38 10,3 C 9,4 C 5,6 C 69 % 1031,6 hPa 0,0 l/m 0 min 0 min 0 W/m 6,4 km/h (2 Bft) 97,87 %
22.03.2022 01:40 10,3 C 9,4 C 5,6 C 69 % 1031,6 hPa 0,0 l/m 0 min 0 min 0 W/m 6,4 km/h (2 Bft) 97,87 %
22.03.2022 01:42 10,3 C 9,4 C 5,6 C 69 % 1031,6 hPa 0,0 l/m 0 min 0 min 0 W/m 12,9 km/h (3 Bft) 97,83 %
22.03.2022 01:44 10,2 C 9,4 C 5,6 C 69 % 1031,6 hPa 0,0 l/m 0 min 0 min 0 W/m 6,4 km/h (2 Bft) 95,74 %
22.03.2022 01:46 10,2 C 9,4 C 5,6 C 69 % 1031,7 hPa 0,0 l/m 0 min 0 min 0 W/m 6,4 km/h (2 Bft) 97,87 %
22.03.2022 01:48 10,2 C 9,4 C 5,6 C 69 % 1031,7 hPa 0,0 l/m 0 min 0 min 0 W/m 3,2 km/h (1 Bft) 97,87 %
22.03.2022 01:50 10,2 C 9,4 C 5,6 C 69 % 1031,7 hPa 0,0 l/m 0 min 0 min 0 W/m 6,4 km/h (2 Bft) 97,87 %
22.03.2022 01:52 10,2 C 8,9 C 5,6 C 69 % 1031,7 hPa 0,0 l/m 0 min 0 min 0 W/m 6,4 km/h (2 Bft) 95,74 %
22.03.2022 01:54 10,2 C 8,9 C 5,6 C 69 % 1031,6 hPa 0,0 l/m 0 min 0 min 0 W/m 6,4 km/h (2 Bft) 97,83 %
22.03.2022 01:56 10,1 C 8,9 C 5,6 C 69 % 1031,7 hPa 0,0 l/m 0 min 0 min 0 W/m 12,9 km/h (3 Bft) 97,87 %
22.03.2022 01:58 10,1 C 8,9 C 5,6 C 68 % 1031,6 hPa 0,0 l/m 0 min 0 min 0 W/m 6,4 km/h (2 Bft) 97,87 %
22.03.2022 02:00 10,1 C 8,9 C 5,6 C 68 % 1031,6 hPa 0,0 l/m 0 min 0 min 0 W/m 6,4 km/h (2 Bft) 100,00 %
22.03.2022 02:02 10,1 C 8,9 C 5,6 C 68 % 1031,6 hPa 0,0 l/m 0 min 0 min 0 W/m 6,4 km/h (2 Bft) 95,74 %
22.03.2022 02:04 10,1 C 8,9 C 5,6 C 68 % 1031,6 hPa 0,0 l/m 0 min 0 min 0 W/m 6,4 km/h (2 Bft) 95,74 %
22.03.2022 02:06 10,1 C 8,9 C 5,6 C 68 % 1031,6 hPa 0,0 l/m 0 min 0 min 0 W/m 3,2 km/h (1 Bft) 97,83 %
22.03.2022 02:08 10,1 C 8,9 C 5,6 C 68 % 1031,7 hPa 0,0 l/m 0 min 0 min 0 W/m 6,4 km/h (2 Bft) 97,87 %
22.03.2022 02:10 10,0 C 8,9 C 5,6 C 68 % 1031,7 hPa 0,0 l/m 0 min 0 min 0 W/m 6,4 km/h (2 Bft) 93,62 %
22.03.2022 02:12 10,0 C 8,9 C 5,0 C 68 % 1031,7 hPa 0,0 l/m 0 min 0 min 0 W/m 6,4 km/h (2 Bft) 95,74 %
22.03.2022 02:14 9,9 C 8,9 C 5,0 C 68 % 1031,7 hPa 0,0 l/m 0 min 0 min 0 W/m 6,4 km/h (2 Bft) 93,62 %
22.03.2022 02:16 9,9 C 8,9 C 5,0 C 68 % 1031,6 hPa 0,0 l/m 0 min 0 min 0 W/m 6,4 km/h (2 Bft) 95,74 %
22.03.2022 02:18 9,9 C 8,9 C 5,0 C 68 % 1031,6 hPa 0,0 l/m 0 min 0 min 0 W/m 12,9 km/h (3 Bft) 95,65 %
22.03.2022 02:20 9,9 C 8,9 C 5,0 C 68 % 1031,6 hPa 0,0 l/m 0 min 0 min 0 W/m 12,9 km/h (3 Bft) 95,74 %
22.03.2022 02:22 9,8 C 8,9 C 5,0 C 68 % 1031,6 hPa 0,0 l/m 0 min 0 min 0 W/m 6,4 km/h (2 Bft) 95,74 %
22.03.2022 02:24 9,8 C 8,9 C 5,0 C 68 % 1031,6 hPa 0,0 l/m 0 min 0 min 0 W/m 12,9 km/h (3 Bft) 95,74 %
22.03.2022 02:26 9,8 C 8,9 C 5,0 C 68 % 1031,6 hPa 0,0 l/m 0 min 0 min 0 W/m 6,4 km/h (2 Bft) 95,74 %
22.03.2022 02:28 9,8 C 8,9 C 5,0 C 68 % 1031,6 hPa 0,0 l/m 0 min 0 min 0 W/m 6,4 km/h (2 Bft) 95,74 %
22.03.2022 02:30 9,7 C 8,9 C 5,0 C 68 % 1031,6 hPa 0,0 l/m 0 min 0 min 0 W/m 6,4 km/h (2 Bft) 95,65 %
22.03.2022 02:32 9,7 C 8,9 C 5,0 C 68 % 1031,6 hPa 0,0 l/m 0 min 0 min 0 W/m 6,4 km/h (2 Bft) 97,87 %
22.03.2022 02:34 9,7 C 8,9 C 5,0 C 68 % 1031,5 hPa 0,0 l/m 0 min 0 min 0 W/m 6,4 km/h (2 Bft) 97,87 %
22.03.2022 02:36 9,7 C 8,3 C 5,0 C 68 % 1031,5 hPa 0,0 l/m 0 min 0 min 0 W/m 6,4 km/h (2 Bft) 95,74 %
22.03.2022 02:38 9,7 C 8,3 C 5,0 C 68 % 1031,5 hPa 0,0 l/m 0 min 0 min 0 W/m 6,4 km/h (2 Bft) 97,87 %
22.03.2022 02:40 9,6 C 8,3 C 5,0 C 68 % 1031,5 hPa 0,0 l/m 0 min 0 min 0 W/m 6,4 km/h (2 Bft) 97,87 %
22.03.2022 02:42 9,6 C 8,3 C 5,0 C 68 % 1031,5 hPa 0,0 l/m 0 min 0 min 0 W/m 6,4 km/h (2 Bft) 97,83 %
22.03.2022 02:44 9,6 C 8,3 C 5,0 C 69 % 1031,5 hPa 0,0 l/m 0 min 0 min 0 W/m 12,9 km/h (3 Bft) 95,74 %
22.03.2022 02:46 9,6 C 8,3 C 5,0 C 68 % 1031,5 hPa 0,0 l/m 0 min 0 min 0 W/m 12,9 km/h (3 Bft) 97,87 %
22.03.2022 02:48 9,6 C 8,3 C 5,0 C 68 % 1031,5 hPa 0,0 l/m 0 min 0 min 0 W/m 9,7 km/h (2 Bft) 97,87 %
22.03.2022 02:50 9,5 C 8,3 C 5,0 C 68 % 1031,5 hPa 0,0 l/m 0 min 0 min 0 W/m 6,4 km/h (2 Bft) 97,87 %
22.03.2022 02:52 9,5 C 8,3 C 5,0 C 68 % 1031,5 hPa 0,0 l/m 0 min 0 min 0 W/m 6,4 km/h (2 Bft) 95,74 %
22.03.2022 02:54 9,5 C 8,3 C 5,0 C 68 % 1031,5 hPa 0,0 l/m 0 min 0 min 0 W/m 6,4 km/h (2 Bft) 97,87 %
22.03.2022 02:56 9,5 C 8,3 C 5,0 C 68 % 1031,5 hPa 0,0 l/m 0 min 0 min 0 W/m 9,7 km/h (2 Bft) 100,00 %
22.03.2022 02:58 9,5 C 8,9 C 5,0 C 68 % 1031,5 hPa 0,0 l/m 0 min 0 min 0 W/m 12,9 km/h (3 Bft) 100,00 %
22.03.2022 03:00 9,5 C 8,3 C 5,0 C 68 % 1031,5 hPa 0,0 l/m 0 min 0 min 0 W/m 6,4 km/h (2 Bft) 100,00 %
22.03.2022 03:02 9,4 C 8,3 C 5,0 C 68 % 1031,4 hPa 0,0 l/m 0 min 0 min 0 W/m 6,4 km/h (2 Bft) 97,87 %
22.03.2022 03:04 9,4 C 8,3 C 5,0 C 68 % 1031,4 hPa 0,0 l/m 0 min 0 min 0 W/m 6,4 km/h (2 Bft) 100,00 %
22.03.2022 03:06 9,4 C 8,3 C 5,0 C 68 % 1031,4 hPa 0,0 l/m 0 min 0 min 0 W/m 6,4 km/h (2 Bft) 97,83 %
22.03.2022 03:08 9,4 C 8,3 C 5,0 C 68 % 1031,5 hPa 0,0 l/m 0 min 0 min 0 W/m 9,7 km/h (2 Bft) 100,00 %
22.03.2022 03:10 9,4 C 8,3 C 5,0 C 68 % 1031,4 hPa 0,0 l/m 0 min 0 min 0 W/m 12,9 km/h (3 Bft) 100,00 %
22.03.2022 03:12 9,4 C 8,3 C 5,0 C 68 % 1031,4 hPa 0,0 l/m 0 min 0 min 0 W/m 12,9 km/h (3 Bft) 100,00 %
22.03.2022 03:14 9,4 C 8,3 C 5,0 C 68 % 1031,3 hPa 0,0 l/m 0 min 0 min 0 W/m 12,9 km/h (3 Bft) 100,00 %
22.03.2022 03:16 9,4 C 8,3 C 5,0 C 68 % 1031,4 hPa 0,0 l/m 0 min 0 min 0 W/m 6,4 km/h (2 Bft) 100,00 %
22.03.2022 03:18 9,4 C 8,3 C 5,0 C 68 % 1031,3 hPa 0,0 l/m 0 min 0 min 0 W/m 6,4 km/h (2 Bft) 100,00 %
22.03.2022 03:20 9,3 C 8,3 C 5,0 C 68 % 1031,3 hPa 0,0 l/m 0 min 0 min 0 W/m 12,9 km/h (3 Bft) 97,87 %
22.03.2022 03:22 9,3 C 8,3 C 5,0 C 68 % 1031,3 hPa 0,0 l/m 0 min 0 min 0 W/m 6,4 km/h (2 Bft) 100,00 %
22.03.2022 03:24 9,3 C 8,3 C 5,0 C 68 % 1031,3 hPa 0,0 l/m 0 min 0 min 0 W/m 12,9 km/h (3 Bft) 97,87 %
22.03.2022 03:26 9,3 C 8,3 C 5,0 C 68 % 1031,3 hPa 0,0 l/m 0 min 0 min 0 W/m 6,4 km/h (2 Bft) 100,00 %
22.03.2022 03:28 9,3 C 8,3 C 5,0 C 68 % 1031,3 hPa 0,0 l/m 0 min 0 min 0 W/m 6,4 km/h (2 Bft) 97,87 %
22.03.2022 03:30 9,3 C 8,3 C 4,4 C 68 % 1031,3 hPa 0,0 l/m 0 min 0 min 0 W/m 6,4 km/h (2 Bft) 100,00 %
22.03.2022 03:32 9,3 C 8,3 C 4,4 C 68 % 1031,2 hPa 0,0 l/m 0 min 0 min 0 W/m 6,4 km/h (2 Bft) 100,00 %
22.03.2022 03:34 9,2 C 8,3 C 4,4 C 68 % 1031,2 hPa 0,0 l/m 0 min 0 min 0 W/m 12,9 km/h (3 Bft) 100,00 %
22.03.2022 03:36 9,2 C 8,3 C 4,4 C 68 % 1031,3 hPa 0,0 l/m 0 min 0 min 0 W/m 12,9 km/h (3 Bft) 100,00 %
22.03.2022 03:38 9,2 C 8,3 C 4,4 C 68 % 1031,3 hPa 0,0 l/m 0 min 0 min 0 W/m 12,9 km/h (3 Bft) 97,87 %
22.03.2022 03:40 9,2 C 8,3 C 4,4 C 68 % 1031,3 hPa 0,0 l/m 0 min 0 min 0 W/m 9,7 km/h (2 Bft) 100,00 %
22.03.2022 03:42 9,2 C 8,3 C 4,4 C 68 % 1031,3 hPa 0,0 l/m 0 min 0 min 0 W/m 12,9 km/h (3 Bft) 100,00 %
22.03.2022 03:44 9,1 C 8,3 C 4,4 C 68 % 1031,2 hPa 0,0 l/m 0 min 0 min 0 W/m 12,9 km/h (3 Bft) 100,00 %
22.03.2022 03:46 9,1 C 8,3 C 4,4 C 68 % 1031,2 hPa 0,0 l/m 0 min 0 min 0 W/m 12,9 km/h (3 Bft) 97,87 %
22.03.2022 03:48 9,1 C 8,3 C 4,4 C 68 % 1031,2 hPa 0,0 l/m 0 min 0 min 0 W/m 12,9 km/h (3 Bft) 100,00 %
22.03.2022 03:50 9,1 C 8,3 C 4,4 C 68 % 1031,2 hPa 0,0 l/m 0 min 0 min 0 W/m 16,1 km/h (3 Bft) 97,87 %
22.03.2022 03:52 9,1 C 8,3 C 4,4 C 68 % 1031,2 hPa 0,0 l/m 0 min 0 min 0 W/m 9,7 km/h (2 Bft) 97,87 %
22.03.2022 03:54 9,1 C 8,3 C 4,4 C 68 % 1031,3 hPa 0,0 l/m 0 min 0 min 0 W/m 12,9 km/h (3 Bft) 97,83 %
22.03.2022 03:56 9,1 C 8,3 C 4,4 C 68 % 1031,2 hPa 0,0 l/m 0 min 0 min 0 W/m 6,4 km/h (2 Bft) 95,74 %
22.03.2022 03:58 9,1 C 8,3 C 4,4 C 68 % 1031,2 hPa 0,0 l/m 0 min 0 min 0 W/m 12,9 km/h (3 Bft) 97,87 %
22.03.2022 04:00 9,1 C 8,3 C 4,4 C 68 % 1031,3 hPa 0,0 l/m 0 min 0 min 0 W/m 6,4 km/h (2 Bft) 95,74 %
22.03.2022 04:02 9,1 C 7,8 C 4,4 C 68 % 1031,3 hPa 0,0 l/m 0 min 0 min 0 W/m 6,4 km/h (2 Bft) 100,00 %
22.03.2022 04:04 9,0 C 7,8 C 4,4 C 68 % 1031,3 hPa 0,0 l/m 0 min 0 min 0 W/m 6,4 km/h (2 Bft) 100,00 %
22.03.2022 04:06 9,0 C 7,8 C 4,4 C 68 % 1031,3 hPa 0,0 l/m 0 min 0 min 0 W/m 6,4 km/h (2 Bft) 97,83 %
22.03.2022 04:08 9,0 C 7,8 C 4,4 C 68 % 1031,2 hPa 0,0 l/m 0 min 0 min 0 W/m 6,4 km/h (2 Bft) 97,87 %
22.03.2022 04:10 8,9 C 7,8 C 4,4 C 68 % 1031,2 hPa 0,0 l/m 0 min 0 min 0 W/m 6,4 km/h (2 Bft) 97,87 %
22.03.2022 04:12 8,9 C 7,8 C 4,4 C 68 % 1031,3 hPa 0,0 l/m 0 min 0 min 0 W/m 6,4 km/h (2 Bft) 95,74 %
22.03.2022 04:14 8,9 C 7,8 C 4,4 C 68 % 1031,3 hPa 0,0 l/m 0 min 0 min 0 W/m 9,7 km/h (2 Bft) 93,62 %
22.03.2022 04:16 8,9 C 7,8 C 4,4 C 68 % 1031,3 hPa 0,0 l/m 0 min 0 min 0 W/m 6,4 km/h (2 Bft) 95,74 %
22.03.2022 04:18 8,8 C 7,8 C 4,4 C 68 % 1031,3 hPa 0,0 l/m 0 min 0 min 0 W/m 6,4 km/h (2 Bft) 97,83 %
22.03.2022 04:20 8,8 C 7,8 C 4,4 C 68 % 1031,3 hPa 0,0 l/m 0 min 0 min 0 W/m 6,4 km/h (2 Bft) 93,62 %
22.03.2022 04:22 8,8 C 7,8 C 4,4 C 68 % 1031,3 hPa 0,0 l/m 0 min 0 min 0 W/m 12,9 km/h (3 Bft) 95,74 %
22.03.2022 04:24 8,8 C 7,8 C 4,4 C 68 % 1031,3 hPa 0,0 l/m 0 min 0 min 0 W/m 12,9 km/h (3 Bft) 97,87 %
22.03.2022 04:26 8,8 C 7,8 C 4,4 C 68 % 1031,4 hPa 0,0 l/m 0 min 0 min 0 W/m 6,4 km/h (2 Bft) 97,87 %
22.03.2022 04:28 8,8 C 7,8 C 4,4 C 68 % 1031,4 hPa 0,0 l/m 0 min 0 min 0 W/m 6,4 km/h (2 Bft) 97,87 %
22.03.2022 04:30 8,7 C 7,8 C 4,4 C 68 % 1031,4 hPa 0,0 l/m 0 min 0 min 0 W/m 6,4 km/h (2 Bft) 95,65 %
22.03.2022 04:32 8,7 C 7,8 C 4,4 C 68 % 1031,4 hPa 0,0 l/m 0 min 0 min 0 W/m 6,4 km/h (2 Bft) 97,87 %
22.03.2022 04:34 8,7 C 7,8 C 3,9 C 68 % 1031,4 hPa 0,0 l/m 0 min 0 min 0 W/m 6,4 km/h (2 Bft) 97,87 %
22.03.2022 04:36 8,7 C 7,8 C 3,9 C 68 % 1031,4 hPa 0,0 l/m 0 min 0 min 0 W/m 6,4 km/h (2 Bft) 97,87 %
22.03.2022 04:38 8,7 C 7,8 C 3,9 C 68 % 1031,4 hPa 0,0 l/m 0 min 0 min 0 W/m 12,9 km/h (3 Bft) 47,62 %
22.03.2022 04:40 8,7 C 7,8 C 3,9 C 68 % 1031,4 hPa 0,0 l/m 0 min 0 min 0 W/m 12,9 km/h (3 Bft) 95,74 %
22.03.2022 04:42 8,6 C 7,8 C 3,9 C 68 % 1031,4 hPa 0,0 l/m 0 min 0 min 0 W/m 6,4 km/h (2 Bft) 93,48 %
22.03.2022 04:44 8,6 C 7,8 C 3,9 C 68 % 1031,4 hPa 0,0 l/m 0 min 0 min 0 W/m 6,4 km/h (2 Bft) 95,74 %
22.03.2022 04:46 8,6 C 7,8 C 3,9 C 68 % 1031,4 hPa 0,0 l/m 0 min 0 min 0 W/m 6,4 km/h (2 Bft) 95,74 %
22.03.2022 04:48 8,6 C 7,2 C 3,9 C 68 % 1031,4 hPa 0,0 l/m 0 min 0 min 0 W/m 6,4 km/h (2 Bft) 95,74 %
22.03.2022 04:50 8,6 C 7,2 C 3,9 C 68 % 1031,5 hPa 0,0 l/m 0 min 0 min 0 W/m 6,4 km/h (2 Bft) 93,62 %
22.03.2022 04:52 8,5 C 7,2 C 3,9 C 68 % 1031,5 hPa 0,0 l/m 0 min 0 min 0 W/m 6,4 km/h (2 Bft) 95,65 %
22.03.2022 04:54 8,5 C 7,2 C 3,9 C 68 % 1031,5 hPa 0,0 l/m 0 min 0 min 0 W/m 9,7 km/h (2 Bft) 95,74 %
22.03.2022 04:56 8,5 C 7,2 C 3,9 C 68 % 1031,5 hPa 0,0 l/m 0 min 0 min 0 W/m 3,2 km/h (1 Bft) 93,62 %
22.03.2022 04:58 8,4 C 7,2 C 3,9 C 68 % 1031,6 hPa 0,0 l/m 0 min 0 min 0 W/m 6,4 km/h (2 Bft) 95,74 %
22.03.2022 05:00 8,4 C 7,2 C 3,9 C 68 % 1031,5 hPa 0,0 l/m 0 min 0 min 0 W/m 3,2 km/h (1 Bft) 95,74 %
22.03.2022 05:02 8,4 C 7,2 C 3,9 C 68 % 1031,5 hPa 0,0 l/m 0 min 0 min 0 W/m 6,4 km/h (2 Bft) 93,62 %
22.03.2022 05:04 8,4 C 7,2 C 3,9 C 68 % 1031,5 hPa 0,0 l/m 0 min 0 min 0 W/m 6,4 km/h (2 Bft) 95,65 %
22.03.2022 05:06 8,3 C 7,2 C 3,9 C 68 % 1031,6 hPa 0,0 l/m 0 min 0 min 0 W/m 12,9 km/h (3 Bft) 95,74 %
22.03.2022 05:08 8,3 C 7,2 C 3,9 C 68 % 1031,6 hPa 0,0 l/m 0 min 0 min 0 W/m 3,2 km/h (1 Bft) 97,87 %
22.03.2022 05:10 8,3 C 7,2 C 3,9 C 68 % 1031,6 hPa 0,0 l/m 0 min 0 min 0 W/m 6,4 km/h (2 Bft) 97,87 %
22.03.2022 05:12 8,3 C 7,2 C 3,9 C 68 % 1031,6 hPa 0,0 l/m 0 min 0 min 0 W/m 12,9 km/h (3 Bft) 97,87 %
22.03.2022 05:14 8,3 C 7,2 C 3,9 C 68 % 1031,6 hPa 0,0 l/m 0 min 0 min 0 W/m 12,9 km/h (3 Bft) 97,87 %
22.03.2022 05:16 8,2 C 7,2 C 3,3 C 68 % 1031,6 hPa 0,0 l/m 0 min 0 min 0 W/m 3,2 km/h (1 Bft) 97,83 %
22.03.2022 05:18 8,2 C 7,2 C 3,3 C 69 % 1031,7 hPa 0,0 l/m 0 min 0 min 0 W/m 3,2 km/h (1 Bft) 97,87 %
22.03.2022 05:20 8,2 C 7,2 C 3,3 C 69 % 1031,7 hPa 0,0 l/m 0 min 0 min 0 W/m 3,2 km/h (1 Bft) 95,74 %
22.03.2022 05:22 8,2 C 7,2 C 3,3 C 69 % 1031,7 hPa 0,0 l/m 0 min 0 min 0 W/m 6,4 km/h (2 Bft) 97,87 %
22.03.2022 05:24 8,1 C 7,2 C 3,3 C 69 % 1031,7 hPa 0,0 l/m 0 min 0 min 0 W/m 3,2 km/h (1 Bft) 100,00 %
22.03.2022 05:26 8,1 C 6,7 C 3,3 C 69 % 1031,7 hPa 0,0 l/m 0 min 0 min 0 W/m 3,2 km/h (1 Bft) 100,00 %
22.03.2022 05:28 8,1 C 7,2 C 3,3 C 69 % 1031,7 hPa 0,0 l/m 0 min 0 min 0 W/m 6,4 km/h (2 Bft) 100,00 %
22.03.2022 05:30 8,1 C 7,2 C 3,3 C 69 % 1031,7 hPa 0,0 l/m 0 min 0 min 0 W/m 6,4 km/h (2 Bft) 100,00 %
22.03.2022 05:32 8,1 C 7,2 C 3,3 C 69 % 1031,7 hPa 0,0 l/m 0 min 0 min 0 W/m 9,7 km/h (2 Bft) 95,74 %
22.03.2022 05:34 8,1 C 7,2 C 3,3 C 69 % 1031,7 hPa 0,0 l/m 0 min 0 min 0 W/m 6,4 km/h (2 Bft) 97,87 %
22.03.2022 05:36 8,0 C 7,2 C 3,3 C 69 % 1031,7 hPa 0,0 l/m 0 min 0 min 0 W/m 3,2 km/h (1 Bft) 100,00 %
22.03.2022 05:38 8,0 C 7,2 C 3,3 C 69 % 1031,7 hPa 0,0 l/m 0 min 0 min 0 W/m 12,9 km/h (3 Bft) 95,74 %
22.03.2022 05:40 8,0 C 7,2 C 3,3 C 69 % 1031,7 hPa 0,0 l/m 0 min 0 min 0 W/m 6,4 km/h (2 Bft) 100,00 %
22.03.2022 05:42 7,9 C 7,2 C 3,3 C 69 % 1031,7 hPa 0,0 l/m 0 min 0 min 0 W/m 3,2 km/h (1 Bft) 97,87 %
22.03.2022 05:44 7,9 C 7,2 C 3,3 C 69 % 1031,7 hPa 0,0 l/m 0 min 0 min 0 W/m 6,4 km/h (2 Bft) 95,74 %
22.03.2022 05:46 7,9 C 7,2 C 3,3 C 68 % 1031,6 hPa 0,0 l/m 0 min 0 min 0 W/m 3,2 km/h (1 Bft) 95,74 %
22.03.2022 05:48 7,9 C 7,2 C 3,3 C 68 % 1031,6 hPa 0,0 l/m 0 min 0 min 0 W/m 3,2 km/h (1 Bft) 97,87 %
22.03.2022 05:50 7,9 C 6,7 C 3,3 C 68 % 1031,7 hPa 0,0 l/m 0 min 0 min 0 W/m 6,4 km/h (2 Bft) 95,74 %
22.03.2022 05:52 7,9 C 6,7 C 3,3 C 68 % 1031,7 hPa 0,0 l/m 0 min 0 min 0 W/m 3,2 km/h (1 Bft) 95,65 %
22.03.2022 05:54 7,9 C 6,7 C 3,3 C 68 % 1031,7 hPa 0,0 l/m 0 min 0 min 0 W/m 6,4 km/h (2 Bft) 97,87 %
22.03.2022 05:56 7,9 C 6,7 C 3,3 C 68 % 1031,7 hPa 0,0 l/m 0 min 0 min 0 W/m 3,2 km/h (1 Bft) 97,87 %
22.03.2022 05:58 7,8 C 6,7 C 3,3 C 68 % 1031,6 hPa 0,0 l/m 0 min 0 min 0 W/m 6,4 km/h (2 Bft) 95,74 %
22.03.2022 06:00 7,8 C 6,7 C 3,3 C 68 % 1031,7 hPa 0,0 l/m 0 min 0 min 0 W/m 12,9 km/h (3 Bft) 97,87 %
22.03.2022 06:02 7,8 C 6,7 C 3,3 C 68 % 1031,7 hPa 0,0 l/m 0 min 0 min 0 W/m 6,4 km/h (2 Bft) 97,87 %
22.03.2022 06:04 7,8 C 6,7 C 3,3 C 68 % 1031,7 hPa 0,0 l/m 0 min 0 min 0 W/m 6,4 km/h (2 Bft) 97,83 %
22.03.2022 06:08 7,8 C 6,7 C 3,3 C 68 % 1031,7 hPa 0,0 l/m 0 min 0 min 0 W/m 6,4 km/h (2 Bft) 97,87 %
22.03.2022 06:10 7,8 C 6,7 C 3,3 C 68 % 1031,7 hPa 0,0 l/m 0 min 0 min 0 W/m 3,2 km/h (1 Bft) 100,00 %
22.03.2022 06:12 7,7 C 6,7 C 3,3 C 68 % 1031,8 hPa 0,0 l/m 0 min 0 min 0 W/m 3,2 km/h (1 Bft) 97,87 %
22.03.2022 06:14 7,7 C 6,7 C 3,3 C 68 % 1031,8 hPa 0,0 l/m 0 min 0 min 0 W/m 6,4 km/h (2 Bft) 100,00 %
22.03.2022 06:16 7,7 C 6,7 C 3,3 C 68 % 1031,8 hPa 0,0 l/m 0 min 0 min 0 W/m 3,2 km/h (1 Bft) 100,00 %
22.03.2022 06:18 7,7 C 6,7 C 3,3 C 68 % 1031,8 hPa 0,0 l/m 0 min 0 min 0 W/m 3,2 km/h (1 Bft) 100,00 %
22.03.2022 06:20 7,7 C 6,7 C 3,3 C 68 % 1031,8 hPa 0,0 l/m 0 min 0 min 0 W/m 3,2 km/h (1 Bft) 97,87 %
22.03.2022 06:22 7,7 C 6,7 C 3,3 C 68 % 1031,8 hPa 0,0 l/m 0 min 0 min 0 W/m 3,2 km/h (1 Bft) 100,00 %
22.03.2022 06:24 7,7 C 6,7 C 3,3 C 68 % 1031,8 hPa 0,0 l/m 0 min 0 min 0 W/m 6,4 km/h (2 Bft) 100,00 %
22.03.2022 06:26 7,7 C 6,7 C 3,3 C 68 % 1031,9 hPa 0,0 l/m 0 min 0 min 0 W/m 6,4 km/h (2 Bft) 100,00 %
22.03.2022 06:28 7,7 C 6,7 C 3,3 C 68 % 1031,9 hPa 0,0 l/m 0 min 0 min 0 W/m 6,4 km/h (2 Bft) 100,00 %
22.03.2022 06:30 7,6 C 6,7 C 2,8 C 68 % 1031,9 hPa 0,0 l/m 0 min 0 min 0 W/m 3,2 km/h (1 Bft) 100,00 %
22.03.2022 06:32 7,6 C 6,1 C 2,8 C 68 % 1031,9 hPa 0,0 l/m 0 min 0 min 0 W/m 3,2 km/h (1 Bft) 100,00 %
22.03.2022 06:34 7,6 C 6,1 C 2,8 C 68 % 1031,9 hPa 0,0 l/m 0 min 0 min 4 W/m 3,2 km/h (1 Bft) 100,00 %
22.03.2022 06:36 7,6 C 6,1 C 2,8 C 69 % 1031,9 hPa 0,0 l/m 0 min 0 min 5 W/m 3,2 km/h (1 Bft) 100,00 %
22.03.2022 06:38 7,5 C 6,1 C 2,8 C 69 % 1032,0 hPa 0,0 l/m 0 min 0 min 5 W/m 3,2 km/h (1 Bft) 97,87 %
22.03.2022 06:40 7,5 C 6,1 C 2,8 C 69 % 1032,0 hPa 0,0 l/m 0 min 0 min 7 W/m 3,2 km/h (1 Bft) 100,00 %
22.03.2022 06:42 7,4 C 6,1 C 2,8 C 69 % 1032,0 hPa 0,0 l/m 0 min 0 min 9 W/m 6,4 km/h (2 Bft) 97,87 %
22.03.2022 06:44 7,4 C 6,1 C 2,8 C 69 % 1032,0 hPa 0,0 l/m 0 min 0 min 10 W/m 12,9 km/h (3 Bft) 100,00 %
22.03.2022 06:46 7,4 C 6,1 C 2,8 C 69 % 1032,0 hPa 0,0 l/m 0 min 0 min 11 W/m 3,2 km/h (1 Bft) 100,00 %
22.03.2022 06:48 7,4 C 6,1 C 2,8 C 69 % 1032,0 hPa 0,0 l/m 0 min 0 min 12 W/m 3,2 km/h (1 Bft) 97,87 %
22.03.2022 06:50 7,4 C 6,7 C 2,8 C 69 % 1032,0 hPa 0,0 l/m 0 min 0 min 14 W/m 6,4 km/h (2 Bft) 97,83 %
22.03.2022 06:52 7,3 C 6,7 C 2,8 C 69 % 1032,0 hPa 0,0 l/m 0 min 0 min 16 W/m 3,2 km/h (1 Bft) 100,00 %
22.03.2022 06:54 7,3 C 6,7 C 2,8 C 69 % 1032,0 hPa 0,0 l/m 0 min 0 min 18 W/m 6,4 km/h (2 Bft) 100,00 %
22.03.2022 06:56 7,3 C 6,7 C 2,8 C 69 % 1032,0 hPa 0,0 l/m 0 min 0 min 20 W/m 6,4 km/h (2 Bft) 100,00 %
22.03.2022 06:58 7,3 C 6,7 C 2,8 C 69 % 1032,0 hPa 0,0 l/m 0 min 0 min 22 W/m 6,4 km/h (2 Bft) 95,65 %
22.03.2022 07:00 7,3 C 6,7 C 2,8 C 69 % 1032,0 hPa 0,0 l/m 0 min 0 min 24 W/m 6,4 km/h (2 Bft) 100,00 %
22.03.2022 07:02 7,3 C 6,7 C 3,3 C 69 % 1032,0 hPa 0,0 l/m 0 min 0 min 26 W/m 6,4 km/h (2 Bft) 93,62 %
22.03.2022 07:06 7,3 C 6,7 C 3,3 C 69 % 1032,0 hPa 0,0 l/m 0 min 0 min 30 W/m 6,4 km/h (2 Bft) 97,94 %
22.03.2022 07:08 7,3 C 6,7 C 3,3 C 69 % 1032,1 hPa 0,0 l/m 0 min 0 min 32 W/m 6,4 km/h (2 Bft) 97,14 %
22.03.2022 07:10 7,3 C 6,7 C 3,3 C 69 % 1032,1 hPa 0,0 l/m 0 min 0 min 33 W/m 12,9 km/h (3 Bft) 97,87 %
22.03.2022 07:12 7,3 C 6,7 C 3,3 C 69 % 1032,1 hPa 0,0 l/m 0 min 0 min 35 W/m 6,4 km/h (2 Bft) 100,00 %
22.03.2022 07:15 7,3 C 6,7 C 3,3 C 69 % 1032,1 hPa 0,0 l/m 0 min 0 min 37 W/m 6,4 km/h (2 Bft) 100,00 %
22.03.2022 07:20 7,3 C 7,2 C 3,3 C 68 % 1032,2 hPa 0,0 l/m 0 min 0 min 41 W/m 6,4 km/h (2 Bft) 100,00 %
22.03.2022 07:25 7,4 C 7,2 C 3,3 C 69 % 1032,3 hPa 0,0 l/m 0 min 0 min 45 W/m 12,9 km/h (3 Bft) 99,12 %
22.03.2022 07:30 7,5 C 7,2 C 3,3 C 69 % 1032,2 hPa 0,0 l/m 0 min 0 min 49 W/m 6,4 km/h (2 Bft) 96,49 %
22.03.2022 07:35 7,6 C 7,8 C 3,9 C 68 % 1032,3 hPa 0,0 l/m 0 min 0 min 53 W/m 12,9 km/h (3 Bft) 81,58 %
22.03.2022 07:40 7,7 C 7,8 C 3,9 C 68 % 1032,3 hPa 0,0 l/m 0 min 0 min 55 W/m 12,9 km/h (3 Bft) 90,35 %
22.03.2022 07:45 7,8 C 7,8 C 3,9 C 67 % 1032,3 hPa 0,0 l/m 0 min 0 min 59 W/m 6,4 km/h (2 Bft) 96,49 %
22.03.2022 07:50 7,9 C 7,8 C 4,4 C 67 % 1032,4 hPa 0,0 l/m 0 min 0 min 62 W/m 12,9 km/h (3 Bft) 98,25 %
22.03.2022 07:55 8,1 C 8,3 C 4,4 C 67 % 1032,4 hPa 0,0 l/m 0 min 0 min 64 W/m 16,1 km/h (3 Bft) 98,25 %
22.03.2022 08:00 8,3 C 8,3 C 4,4 C 66 % 1032,4 hPa 0,0 l/m 0 min 0 min 67 W/m 12,9 km/h (3 Bft) 100,00 %
22.03.2022 08:05 8,4 C 8,3 C 4,4 C 65 % 1032,5 hPa 0,0 l/m 0 min 0 min 69 W/m 16,1 km/h (3 Bft) 100,00 %
22.03.2022 08:10 8,6 C 8,9 C 5,0 C 65 % 1032,4 hPa 0,0 l/m 0 min 0 min 72 W/m 12,9 km/h (3 Bft) 100,00 %
22.03.2022 08:15 8,8 C 8,9 C 5,0 C 64 % 1032,5 hPa 0,0 l/m 0 min 0 min 75 W/m 16,1 km/h (3 Bft) 100,00 %
22.03.2022 08:18 8,9 C 9,4 C 5,0 C 64 % 1032,5 hPa 0,0 l/m 0 min 0 min 76 W/m 6,4 km/h (2 Bft) 96,71 %
22.03.2022 08:20 8,9 C 9,4 C 5,0 C 64 % 1032,5 hPa 0,0 l/m 0 min 0 min 77 W/m 12,9 km/h (3 Bft) 100,00 %
22.03.2022 08:22 9,1 C 9,4 C 5,0 C 64 % 1032,5 hPa 0,0 l/m 0 min 0 min 77 W/m 12,9 km/h (3 Bft) 97,87 %
22.03.2022 08:24 9,1 C 9,4 C 5,0 C 63 % 1032,5 hPa 0,0 l/m 0 min 0 min 79 W/m 19,3 km/h (3 Bft) 97,87 %
22.03.2022 08:26 9,2 C 9,4 C 5,6 C 63 % 1032,6 hPa 0,0 l/m 0 min 0 min 79 W/m 16,1 km/h (3 Bft) 100,00 %
22.03.2022 08:28 9,3 C 9,4 C 5,6 C 63 % 1032,6 hPa 0,0 l/m 0 min 0 min 81 W/m 6,4 km/h (2 Bft) 100,00 %
22.03.2022 08:30 9,3 C 9,4 C 5,6 C 63 % 1032,6 hPa 0,0 l/m 0 min 0 min 82 W/m 12,9 km/h (3 Bft) 100,00 %
22.03.2022 08:32 9,4 C 9,4 C 5,6 C 63 % 1032,6 hPa 0,0 l/m 0 min 0 min 85 W/m 6,4 km/h (2 Bft) 100,00 %
22.03.2022 08:34 9,5 C 9,4 C 5,6 C 62 % 1032,6 hPa 0,0 l/m 0 min 0 min 126 W/m 16,1 km/h (3 Bft) 100,00 %
22.03.2022 08:36 9,6 C 10,0 C 5,6 C 62 % 1032,6 hPa 0,0 l/m 0 min 0 min 130 W/m 16,1 km/h (3 Bft) 97,87 %
22.03.2022 08:38 9,7 C 10,0 C 5,6 C 62 % 1032,6 hPa 0,0 l/m 0 min 0 min 93 W/m 16,1 km/h (3 Bft) 100,00 %
22.03.2022 08:40 9,7 C 10,0 C 5,6 C 62 % 1032,6 hPa 0,0 l/m 0 min 0 min 106 W/m 9,7 km/h (2 Bft) 100,00 %
22.03.2022 08:42 9,8 C 10,0 C 5,6 C 62 % 1032,6 hPa 0,0 l/m 2 min 0 min 160 W/m 6,4 km/h (2 Bft) 100,00 %
22.03.2022 08:44 9,9 C 10,0 C 5,6 C 62 % 1032,6 hPa 0,0 l/m 2 min 0 min 178 W/m 6,4 km/h (2 Bft) 100,00 %
22.03.2022 08:46 9,9 C 10,6 C 6,1 C 61 % 1032,6 hPa 0,0 l/m 2 min 0 min 234 W/m 16,1 km/h (3 Bft) 97,87 %
22.03.2022 08:48 10,1 C 10,6 C 6,1 C 61 % 1032,6 hPa 0,0 l/m 2 min 0 min 275 W/m 6,4 km/h (2 Bft) 100,00 %
22.03.2022 08:50 10,1 C 11,1 C 6,1 C 61 % 1032,5 hPa 0,0 l/m 2 min 0 min 281 W/m 9,7 km/h (2 Bft) 100,00 %
22.03.2022 08:52 10,2 C 11,7 C 6,1 C 61 % 1032,6 hPa 0,0 l/m 2 min 0 min 286 W/m 12,9 km/h (3 Bft) 100,00 %
22.03.2022 08:54 10,3 C 12,2 C 6,7 C 61 % 1032,6 hPa 0,0 l/m 2 min 0 min 287 W/m 6,4 km/h (2 Bft) 100,00 %
22.03.2022 08:56 10,5 C 12,8 C 6,7 C 60 % 1032,6 hPa 0,0 l/m 2 min 0 min 298 W/m 9,7 km/h (2 Bft) 100,00 %
22.03.2022 08:58 10,7 C 13,3 C 6,7 C 60 % 1032,6 hPa 0,0 l/m 2 min 0 min 306 W/m 12,9 km/h (3 Bft) 97,87 %
22.03.2022 09:00 10,8 C 13,9 C 6,7 C 59 % 1032,6 hPa 0,0 l/m 2 min 0 min 311 W/m 6,4 km/h (2 Bft) 100,00 %
22.03.2022 09:02 10,9 C 14,4 C 7,2 C 59 % 1032,6 hPa 0,0 l/m 2 min 0 min 312 W/m 16,1 km/h (3 Bft) 100,00 %
22.03.2022 09:04 11,1 C 14,4 C 7,2 C 59 % 1032,6 hPa 0,0 l/m 2 min 0 min 317 W/m 12,9 km/h (3 Bft) 100,00 %
22.03.2022 09:06 11,2 C 14,4 C 7,2 C 58 % 1032,6 hPa 0,0 l/m 2 min 0 min 324 W/m 16,1 km/h (3 Bft) 100,00 %
22.03.2022 09:08 11,3 C 14,4 C 7,2 C 58 % 1032,6 hPa 0,0 l/m 2 min 0 min 330 W/m 12,9 km/h (3 Bft) 100,00 %
22.03.2022 09:10 11,4 C 15,0 C 7,2 C 58 % 1032,6 hPa 0,0 l/m 2 min 0 min 294 W/m 6,4 km/h (2 Bft) 100,00 %
22.03.2022 09:12 11,6 C 15,0 C 7,8 C 58 % 1032,6 hPa 0,0 l/m 2 min 0 min 289 W/m 12,9 km/h (3 Bft) 100,00 %
22.03.2022 09:14 11,7 C 15,0 C 8,3 C 57 % 1032,6 hPa 0,0 l/m 2 min 0 min 320 W/m 12,9 km/h (3 Bft) 100,00 %
22.03.2022 09:16 11,8 C 15,6 C 8,9 C 57 % 1032,7 hPa 0,0 l/m 2 min 0 min 337 W/m 9,7 km/h (2 Bft) 97,87 %
22.03.2022 09:18 11,9 C 15,6 C 9,4 C 57 % 1032,7 hPa 0,0 l/m 2 min 0 min 349 W/m 12,9 km/h (3 Bft) 100,00 %
22.03.2022 09:20 12,1 C 15,6 C 10,0 C 56 % 1032,7 hPa 0,0 l/m 2 min 0 min 366 W/m 9,7 km/h (2 Bft) 100,00 %
22.03.2022 09:22 12,2 C 15,6 C 10,0 C 55 % 1032,7 hPa 0,0 l/m 2 min 0 min 344 W/m 12,9 km/h (3 Bft) 100,00 %
22.03.2022 09:24 12,3 C 15,0 C 10,0 C 55 % 1032,7 hPa 0,0 l/m 2 min 0 min 352 W/m 12,9 km/h (3 Bft) 100,00 %
22.03.2022 09:26 12,4 C 15,0 C 10,0 C 55 % 1032,7 hPa 0,0 l/m 2 min 0 min 302 W/m 16,1 km/h (3 Bft) 97,87 %
22.03.2022 09:28 12,6 C 15,0 C 9,4 C 54 % 1032,7 hPa 0,0 l/m 2 min 0 min 229 W/m 19,3 km/h (3 Bft) 100,00 %
22.03.2022 09:30 12,6 C 15,0 C 9,4 C 54 % 1032,7 hPa 0,0 l/m 2 min 0 min 248 W/m 16,1 km/h (3 Bft) 97,83 %
22.03.2022 09:32 12,7 C 15,0 C 9,4 C 54 % 1032,7 hPa 0,0 l/m 2 min 0 min 336 W/m 19,3 km/h (3 Bft) 100,00 %
22.03.2022 09:34 12,8 C 15,6 C 10,0 C 53 % 1032,7 hPa 0,0 l/m 2 min 0 min 263 W/m 12,9 km/h (3 Bft) 95,74 %
22.03.2022 09:36 12,9 C 15,6 C 10,0 C 53 % 1032,7 hPa 0,0 l/m 2 min 0 min 339 W/m 16,1 km/h (3 Bft) 97,87 %
22.03.2022 09:38 12,9 C 15,6 C 9,4 C 53 % 1032,7 hPa 0,0 l/m 2 min 0 min 344 W/m 16,1 km/h (3 Bft) 97,87 %
22.03.2022 09:40 13,1 C 15,6 C 9,4 C 52 % 1032,7 hPa 0,0 l/m 2 min 0 min 303 W/m 16,1 km/h (3 Bft) 97,87 %
22.03.2022 09:42 13,1 C 15,0 C 9,4 C 52 % 1032,7 hPa 0,0 l/m 2 min 0 min 313 W/m 19,3 km/h (3 Bft) 97,83 %
22.03.2022 09:44 13,2 C 15,0 C 10,0 C 52 % 1032,7 hPa 0,0 l/m 2 min 0 min 407 W/m 16,1 km/h (3 Bft) 97,87 %
22.03.2022 09:46 13,3 C 15,0 C 10,0 C 52 % 1032,7 hPa 0,0 l/m 2 min 0 min 338 W/m 12,9 km/h (3 Bft) 97,87 %
22.03.2022 09:48 13,3 C 15,0 C 10,0 C 51 % 1032,7 hPa 0,0 l/m 0 min 0 min 229 W/m 12,9 km/h (3 Bft) 95,74 %
22.03.2022 09:50 13,4 C 15,6 C 10,0 C 51 % 1032,7 hPa 0,0 l/m 2 min 0 min 293 W/m 9,7 km/h (2 Bft) 97,87 %
22.03.2022 09:52 13,4 C 15,6 C 10,0 C 52 % 1032,7 hPa 0,0 l/m 2 min 0 min 439 W/m 16,1 km/h (3 Bft) 97,87 %
22.03.2022 09:54 13,5 C 15,0 C 10,0 C 51 % 1032,7 hPa 0,0 l/m 2 min 0 min 370 W/m 16,1 km/h (3 Bft) 97,83 %
22.03.2022 09:56 13,6 C 15,0 C 10,0 C 51 % 1032,6 hPa 0,0 l/m 0 min 0 min 223 W/m 16,1 km/h (3 Bft) 97,87 %
22.03.2022 09:58 13,6 C 15,0 C 10,6 C 51 % 1032,6 hPa 0,0 l/m 0 min 0 min 179 W/m 16,1 km/h (3 Bft) 97,87 %
22.03.2022 10:00 13,6 C 15,0 C 10,6 C 52 % 1032,6 hPa 0,0 l/m 0 min 0 min 198 W/m 6,4 km/h (2 Bft) 95,74 %
22.03.2022 10:02 13,7 C 15,6 C 10,6 C 51 % 1032,6 hPa 0,0 l/m 2 min 0 min 301 W/m 12,9 km/h (3 Bft) 95,74 %
22.03.2022 10:04 13,7 C 15,0 C 10,6 C 51 % 1032,6 hPa 0,0 l/m 2 min 0 min 382 W/m 9,7 km/h (2 Bft) 95,74 %
22.03.2022 10:06 13,8 C 15,0 C 10,6 C 51 % 1032,6 hPa 0,0 l/m 2 min 0 min 474 W/m 12,9 km/h (3 Bft) 95,65 %
22.03.2022 10:08 13,9 C 15,6 C 11,1 C 51 % 1032,6 hPa 0,0 l/m 2 min 0 min 477 W/m 6,4 km/h (2 Bft) 95,74 %
22.03.2022 10:10 13,9 C 15,6 C 11,1 C 50 % 1032,6 hPa 0,0 l/m 2 min 0 min 388 W/m 16,1 km/h (3 Bft) 97,87 %
22.03.2022 10:12 14,1 C 16,1 C 11,7 C 50 % 1032,6 hPa 0,0 l/m 2 min 0 min 408 W/m 9,7 km/h (2 Bft) 97,87 %
22.03.2022 10:14 14,1 C 16,1 C 11,7 C 50 % 1032,5 hPa 0,0 l/m 2 min 0 min 449 W/m 12,9 km/h (3 Bft) 97,87 %
22.03.2022 10:16 14,2 C 16,1 C 11,7 C 51 % 1032,6 hPa 0,0 l/m 2 min 0 min 469 W/m 12,9 km/h (3 Bft) 97,87 %
22.03.2022 10:18 14,3 C 16,7 C 12,2 C 50 % 1032,5 hPa 0,0 l/m 2 min 0 min 513 W/m 12,9 km/h (3 Bft) 97,83 %
22.03.2022 10:20 14,3 C 16,1 C 12,8 C 50 % 1032,5 hPa 0,0 l/m 2 min 0 min 518 W/m 12,9 km/h (3 Bft) 97,87 %
22.03.2022 10:22 14,3 C 16,1 C 12,8 C 50 % 1032,5 hPa 0,0 l/m 2 min 0 min 521 W/m 19,3 km/h (3 Bft) 97,87 %
22.03.2022 10:24 14,4 C 16,7 C 12,8 C 50 % 1032,5 hPa 0,0 l/m 2 min 0 min 525 W/m 12,9 km/h (3 Bft) 95,74 %
22.03.2022 10:26 14,6 C 16,7 C 12,8 C 50 % 1032,5 hPa 0,0 l/m 2 min 0 min 522 W/m 16,1 km/h (3 Bft) 97,87 %
22.03.2022 10:28 14,6 C 16,7 C 12,8 C 49 % 1032,5 hPa 0,0 l/m 2 min 0 min 315 W/m 16,1 km/h (3 Bft) 97,83 %
22.03.2022 10:30 14,7 C 16,7 C 12,8 C 50 % 1032,5 hPa 0,0 l/m 2 min 0 min 450 W/m 12,9 km/h (3 Bft) 97,87 %
22.03.2022 10:32 14,7 C 17,8 C 13,3 C 50 % 1032,5 hPa 0,0 l/m 0 min 0 min 248 W/m 12,9 km/h (3 Bft) 97,87 %
22.03.2022 10:34 14,8 C 17,8 C 13,9 C 49 % 1032,6 hPa 0,0 l/m 2 min 0 min 491 W/m 19,3 km/h (3 Bft) 97,87 %
22.03.2022 10:36 14,8 C 18,3 C 15,0 C 49 % 1032,5 hPa 0,0 l/m 2 min 0 min 417 W/m 12,9 km/h (3 Bft) 97,87 %
22.03.2022 10:38 14,9 C 18,3 C 15,6 C 49 % 1032,5 hPa 0,0 l/m 2 min 0 min 379 W/m 16,1 km/h (3 Bft) 97,87 %
22.03.2022 10:40 15,0 C 18,9 C 16,1 C 49 % 1032,5 hPa 0,0 l/m 2 min 0 min 507 W/m 9,7 km/h (2 Bft) 97,83 %
22.03.2022 10:42 15,1 C 18,9 C 16,7 C 48 % 1032,5 hPa 0,0 l/m 2 min 0 min 488 W/m 12,9 km/h (3 Bft) 97,87 %
22.03.2022 10:44 15,2 C 18,9 C 17,2 C 49 % 1032,4 hPa 0,0 l/m 2 min 0 min 552 W/m 12,9 km/h (3 Bft) 100,00 %
22.03.2022 10:46 15,3 C 19,4 C 17,8 C 49 % 1032,4 hPa 0,0 l/m 2 min 0 min 570 W/m 6,4 km/h (2 Bft) 100,00 %
22.03.2022 10:48 15,4 C 19,4 C 17,8 C 48 % 1032,4 hPa 0,0 l/m 2 min 0 min 573 W/m 12,9 km/h (3 Bft) 96,23 %
22.03.2022 10:50 15,6 C 19,4 C 17,8 C 47 % 1032,4 hPa 0,0 l/m 2 min 0 min 577 W/m 16,1 km/h (3 Bft) 100,00 %
22.03.2022 10:52 15,7 C 20,0 C 17,2 C 48 % 1032,4 hPa 0,0 l/m 2 min 0 min 580 W/m 6,4 km/h (2 Bft) 100,00 %
22.03.2022 10:54 15,8 C 20,6 C 17,8 C 48 % 1032,4 hPa 0,0 l/m 2 min 0 min 585 W/m 12,9 km/h (3 Bft) 100,00 %
22.03.2022 10:56 15,9 C 20,6 C 17,8 C 47 % 1032,4 hPa 0,0 l/m 2 min 0 min 589 W/m 16,1 km/h (3 Bft) 97,87 %
22.03.2022 10:58 16,0 C 20,6 C 17,8 C 46 % 1032,4 hPa 0,0 l/m 2 min 0 min 592 W/m 12,9 km/h (3 Bft) 95,74 %
22.03.2022 11:00 16,1 C 20,0 C 18,3 C 46 % 1032,4 hPa 0,0 l/m 2 min 0 min 596 W/m 12,9 km/h (3 Bft) 100,00 %
22.03.2022 11:02 16,2 C 20,0 C 18,3 C 47 % 1032,4 hPa 0,0 l/m 2 min 0 min 599 W/m 12,9 km/h (3 Bft) 100,00 %
22.03.2022 11:04 16,3 C 20,6 C 18,9 C 46 % 1032,4 hPa 0,0 l/m 2 min 0 min 602 W/m 12,9 km/h (3 Bft) 100,00 %
22.03.2022 11:06 16,4 C 20,6 C 18,9 C 46 % 1032,3 hPa 0,0 l/m 2 min 0 min 606 W/m 12,9 km/h (3 Bft) 100,00 %
22.03.2022 11:08 16,5 C 21,1 C 18,9 C 46 % 1032,3 hPa 0,0 l/m 2 min 0 min 607 W/m 16,1 km/h (3 Bft) 97,87 %
22.03.2022 11:10 16,6 C 21,1 C 18,9 C 45 % 1032,3 hPa 0,0 l/m 2 min 0 min 609 W/m 12,9 km/h (3 Bft) 100,00 %
22.03.2022 11:12 16,7 C 21,1 C 18,9 C 45 % 1032,3 hPa 0,0 l/m 2 min 0 min 612 W/m 9,7 km/h (2 Bft) 100,00 %
22.03.2022 11:14 16,8 C 21,7 C 18,9 C 44 % 1032,3 hPa 0,0 l/m 2 min 0 min 616 W/m 6,4 km/h (2 Bft) 100,00 %
22.03.2022 11:16 16,8 C 22,2 C 18,9 C 45 % 1032,3 hPa 0,0 l/m 2 min 0 min 618 W/m 16,1 km/h (3 Bft) 100,00 %
22.03.2022 11:18 16,9 C 21,7 C 18,3 C 44 % 1032,2 hPa 0,0 l/m 2 min 0 min 621 W/m 12,9 km/h (3 Bft) 97,87 %
22.03.2022 11:20 17,0 C 21,1 C 18,3 C 44 % 1032,2 hPa 0,0 l/m 2 min 0 min 624 W/m 12,9 km/h (3 Bft) 100,00 %
22.03.2022 11:22 17,0 C 21,1 C 18,9 C 43 % 1032,2 hPa 0,0 l/m 2 min 0 min 625 W/m 12,9 km/h (3 Bft) 100,00 %
22.03.2022 11:24 17,1 C 21,7 C 18,9 C 43 % 1032,2 hPa 0,0 l/m 2 min 0 min 628 W/m 16,1 km/h (3 Bft) 100,00 %
22.03.2022 11:26 17,1 C 22,2 C 19,4 C 43 % 1032,2 hPa 0,0 l/m 2 min 0 min 630 W/m 12,9 km/h (3 Bft) 97,87 %
22.03.2022 11:28 17,2 C 22,2 C 20,0 C 43 % 1032,2 hPa 0,0 l/m 2 min 0 min 632 W/m 12,9 km/h (3 Bft) 97,87 %
22.03.2022 11:30 17,3 C 22,8 C 20,0 C 43 % 1032,2 hPa 0,0 l/m 2 min 0 min 634 W/m 12,9 km/h (3 Bft) 100,00 %
22.03.2022 11:32 17,4 C 22,2 C 19,4 C 43 % 1032,1 hPa 0,0 l/m 2 min 0 min 636 W/m 16,1 km/h (3 Bft) 97,87 %
22.03.2022 11:34 17,4 C 22,2 C 19,4 C 43 % 1032,2 hPa 0,0 l/m 2 min 0 min 638 W/m 12,9 km/h (3 Bft) 100,00 %
22.03.2022 11:36 17,4 C 22,2 C 20,0 C 43 % 1032,2 hPa 0,0 l/m 2 min 0 min 639 W/m 12,9 km/h (3 Bft) 93,62 %
22.03.2022 11:38 17,4 C 22,2 C 19,4 C 43 % 1032,2 hPa 0,0 l/m 2 min 0 min 642 W/m 12,9 km/h (3 Bft) 97,87 %
22.03.2022 11:40 17,5 C 23,3 C 20,0 C 43 % 1032,2 hPa 0,0 l/m 2 min 0 min 645 W/m 6,4 km/h (2 Bft) 97,87 %
22.03.2022 11:42 17,6 C 23,3 C 20,0 C 43 % 1032,1 hPa 0,0 l/m 2 min 0 min 646 W/m 12,9 km/h (3 Bft) 95,74 %
22.03.2022 11:44 17,6 C 22,8 C 19,4 C 42 % 1032,1 hPa 0,0 l/m 2 min 0 min 648 W/m 16,1 km/h (3 Bft) 97,87 %
22.03.2022 11:46 17,7 C 22,8 C 18,9 C 42 % 1032,1 hPa 0,0 l/m 2 min 0 min 650 W/m 12,9 km/h (3 Bft) 95,74 %
22.03.2022 11:48 17,7 C 22,8 C 18,3 C 42 % 1032,2 hPa 0,0 l/m 2 min 0 min 650 W/m 16,1 km/h (3 Bft) 95,65 %
22.03.2022 11:50 17,8 C 22,8 C 18,3 C 41 % 1032,2 hPa 0,0 l/m 2 min 0 min 650 W/m 12,9 km/h (3 Bft) 97,87 %
22.03.2022 11:52 17,8 C 23,3 C 18,9 C 41 % 1032,2 hPa 0,0 l/m 2 min 0 min 651 W/m 6,4 km/h (2 Bft) 95,74 %
22.03.2022 11:54 17,9 C 23,9 C 18,9 C 42 % 1032,2 hPa 0,0 l/m 2 min 0 min 655 W/m 6,4 km/h (2 Bft) 95,74 %
22.03.2022 11:56 18,1 C 23,3 C 18,9 C 42 % 1032,2 hPa 0,0 l/m 2 min 0 min 654 W/m 6,4 km/h (2 Bft) 95,74 %
22.03.2022 11:58 18,1 C 22,2 C 18,3 C 41 % 1032,1 hPa 0,0 l/m 2 min 0 min 654 W/m 12,9 km/h (3 Bft) 93,48 %
22.03.2022 12:00 18,1 C 21,1 C 17,8 C 41 % 1032,1 hPa 0,0 l/m 2 min 0 min 656 W/m 6,4 km/h (2 Bft) 95,83 %
22.03.2022 12:02 18,2 C 21,1 C 17,8 C 41 % 1032,1 hPa 0,0 l/m 2 min 0 min 656 W/m 12,9 km/h (3 Bft) 95,24 %
22.03.2022 12:04 18,2 C 20,6 C 17,8 C 41 % 1032,1 hPa 0,0 l/m 2 min 0 min 657 W/m 12,9 km/h (3 Bft) 95,74 %
22.03.2022 12:08 18,2 C 20,0 C 17,2 C 41 % 1032,0 hPa 0,0 l/m 4 min 0 min 661 W/m 16,1 km/h (3 Bft) 95,74 %
22.03.2022 12:10 18,2 C 19,4 C 16,7 C 41 % 1032,0 hPa 0,0 l/m 2 min 0 min 663 W/m 12,9 km/h (3 Bft) 97,87 %
22.03.2022 12:12 18,2 C 19,4 C 16,1 C 41 % 1032,0 hPa 0,0 l/m 2 min 0 min 664 W/m 12,9 km/h (3 Bft) 97,87 %
22.03.2022 12:14 18,2 C 19,4 C 16,1 C 42 % 1032,0 hPa 0,0 l/m 2 min 0 min 663 W/m 9,7 km/h (2 Bft) 97,83 %
22.03.2022 12:16 18,2 C 18,9 C 16,1 C 41 % 1032,0 hPa 0,0 l/m 2 min 0 min 665 W/m 12,9 km/h (3 Bft) 97,87 %
22.03.2022 12:18 18,3 C 18,9 C 16,1 C 41 % 1032,0 hPa 0,0 l/m 2 min 0 min 667 W/m 6,4 km/h (2 Bft) 97,87 %
22.03.2022 12:20 18,3 C 18,9 C 16,1 C 40 % 1031,9 hPa 0,0 l/m 2 min 0 min 669 W/m 9,7 km/h (2 Bft) 97,87 %
22.03.2022 12:22 18,3 C 19,4 C 16,7 C 41 % 1031,9 hPa 0,0 l/m 2 min 0 min 670 W/m 9,7 km/h (2 Bft) 97,87 %
22.03.2022 12:24 18,3 C 19,4 C 16,7 C 41 % 1031,9 hPa 0,0 l/m 2 min 0 min 670 W/m 19,3 km/h (3 Bft) 95,74 %
22.03.2022 12:26 18,3 C 20,0 C 16,7 C 41 % 1031,8 hPa 0,0 l/m 2 min 0 min 670 W/m 12,9 km/h (3 Bft) 97,83 %
22.03.2022 12:28 18,4 C 20,0 C 16,7 C 41 % 1031,8 hPa 0,0 l/m 2 min 0 min 671 W/m 19,3 km/h (3 Bft) 97,87 %
22.03.2022 12:30 18,4 C 20,6 C 16,7 C 42 % 1031,8 hPa 0,0 l/m 2 min 0 min 672 W/m 16,1 km/h (3 Bft) 95,74 %
22.03.2022 12:32 18,4 C 20,6 C 16,7 C 41 % 1031,8 hPa 0,0 l/m 2 min 0 min 674 W/m 12,9 km/h (3 Bft) 95,74 %
22.03.2022 12:34 18,5 C 21,1 C 16,1 C 41 % 1031,8 hPa 0,0 l/m 2 min 0 min 675 W/m 9,7 km/h (2 Bft) 95,74 %
22.03.2022 12:36 18,5 C 21,7 C 15,6 C 40 % 1031,7 hPa 0,0 l/m 2 min 0 min 675 W/m 12,9 km/h (3 Bft) 95,74 %
22.03.2022 12:38 18,6 C 22,8 C 15,6 C 41 % 1031,8 hPa 0,0 l/m 2 min 0 min 676 W/m 9,7 km/h (2 Bft) 95,65 %
22.03.2022 12:40 18,6 C 22,8 C 15,6 C 41 % 1031,8 hPa 0,0 l/m 2 min 0 min 677 W/m 12,9 km/h (3 Bft) 95,74 %
22.03.2022 12:42 18,7 C 23,3 C 15,6 C 41 % 1031,7 hPa 0,0 l/m 2 min 0 min 678 W/m 12,9 km/h (3 Bft) 93,62 %
22.03.2022 12:44 18,7 C 23,3 C 15,0 C 40 % 1031,7 hPa 0,0 l/m 2 min 0 min 680 W/m 12,9 km/h (3 Bft) 95,74 %
22.03.2022 12:46 18,7 C 25,0 C 15,0 C 41 % 1031,6 hPa 0,0 l/m 2 min 0 min 679 W/m 3,2 km/h (1 Bft) 95,74 %
22.03.2022 12:48 18,8 C 25,6 C 15,0 C 40 % 1031,6 hPa 0,0 l/m 2 min 0 min 678 W/m 12,9 km/h (3 Bft) 95,74 %
22.03.2022 12:50 18,9 C 25,6 C 15,0 C 40 % 1031,7 hPa 0,0 l/m 2 min 0 min 679 W/m 12,9 km/h (3 Bft) 95,65 %
22.03.2022 12:52 18,9 C 25,0 C 15,0 C 39 % 1031,6 hPa 0,0 l/m 2 min 0 min 681 W/m 12,9 km/h (3 Bft) 95,74 %
22.03.2022 12:54 18,9 C 26,1 C 15,0 C 40 % 1031,6 hPa 0,0 l/m 2 min 0 min 681 W/m 6,4 km/h (2 Bft) 95,74 %
22.03.2022 12:56 18,9 C 26,1 C 14,4 C 40 % 1031,6 hPa 0,0 l/m 2 min 0 min 677 W/m 9,7 km/h (2 Bft) 93,62 %
22.03.2022 12:58 19,1 C 26,1 C 15,0 C 40 % 1031,6 hPa 0,0 l/m 2 min 0 min 674 W/m 12,9 km/h (3 Bft) 95,74 %
22.03.2022 13:00 19,1 C 26,1 C 15,0 C 39 % 1031,6 hPa 0,0 l/m 2 min 0 min 677 W/m 6,4 km/h (2 Bft) 93,48 %
22.03.2022 13:02 19,2 C 26,1 C 15,0 C 40 % 1031,6 hPa 0,0 l/m 2 min 0 min 679 W/m 12,9 km/h (3 Bft) 95,74 %
22.03.2022 13:04 19,2 C 25,6 C 14,4 C 39 % 1031,6 hPa 0,0 l/m 2 min 0 min 679 W/m 12,9 km/h (3 Bft) 97,87 %
22.03.2022 13:06 19,3 C 26,1 C 15,0 C 39 % 1031,5 hPa 0,0 l/m 2 min 0 min 680 W/m 6,4 km/h (2 Bft) 95,74 %
22.03.2022 13:08 19,4 C 25,6 C 15,0 C 39 % 1031,5 hPa 0,0 l/m 2 min 0 min 682 W/m 12,9 km/h (3 Bft) 95,74 %
22.03.2022 13:10 19,5 C 25,6 C 15,0 C 40 % 1031,5 hPa 0,0 l/m 2 min 0 min 677 W/m 12,9 km/h (3 Bft) 95,74 %
22.03.2022 13:12 19,6 C 25,6 C 15,0 C 39 % 1031,5 hPa 0,0 l/m 2 min 0 min 674 W/m 9,7 km/h (2 Bft) 95,65 %
22.03.2022 13:14 19,6 C 25,0 C 15,0 C 38 % 1031,5 hPa 0,0 l/m 2 min 0 min 670 W/m 6,4 km/h (2 Bft) 95,74 %
22.03.2022 13:16 19,6 C 26,1 C 15,0 C 38 % 1031,5 hPa 0,0 l/m 2 min 0 min 670 W/m 6,4 km/h (2 Bft) 97,87 %
22.03.2022 13:18 19,7 C 25,6 C 15,0 C 38 % 1031,5 hPa 0,0 l/m 2 min 0 min 669 W/m 19,3 km/h (3 Bft) 97,87 %
22.03.2022 13:20 19,7 C 26,1 C 15,0 C 39 % 1031,4 hPa 0,0 l/m 2 min 0 min 670 W/m 3,2 km/h (1 Bft) 95,74 %
22.03.2022 13:22 19,9 C 27,8 C 14,4 C 40 % 1031,4 hPa 0,0 l/m 2 min 0 min 669 W/m 3,2 km/h (1 Bft) 97,87 %
22.03.2022 13:24 20,1 C 27,8 C 15,0 C 38 % 1031,4 hPa 0,0 l/m 2 min 0 min 669 W/m 12,9 km/h (3 Bft) 97,83 %
22.03.2022 13:26 20,1 C 27,2 C 15,0 C 38 % 1031,4 hPa 0,0 l/m 2 min 0 min 666 W/m 12,9 km/h (3 Bft) 97,87 %
22.03.2022 13:28 20,1 C 28,9 C 15,0 C 39 % 1031,3 hPa 0,0 l/m 2 min 0 min 665 W/m 6,4 km/h (2 Bft) 100,00 %
22.03.2022 13:30 20,1 C 28,3 C 15,0 C 38 % 1031,3 hPa 0,0 l/m 2 min 0 min 664 W/m 6,4 km/h (2 Bft) 100,00 %
22.03.2022 13:32 20,2 C 28,3 C 15,0 C 38 % 1031,2 hPa 0,0 l/m 2 min 0 min 662 W/m 6,4 km/h (2 Bft) 100,00 %
22.03.2022 13:34 20,2 C 27,2 C 15,0 C 37 % 1031,2 hPa 0,0 l/m 2 min 0 min 662 W/m 12,9 km/h (3 Bft) 100,00 %
22.03.2022 13:36 20,2 C 26,7 C 15,0 C 37 % 1031,2 hPa 0,0 l/m 2 min 0 min 662 W/m 12,9 km/h (3 Bft) 97,83 %
22.03.2022 13:38 20,3 C 27,2 C 15,0 C 39 % 1031,1 hPa 0,0 l/m 2 min 0 min 659 W/m 6,4 km/h (2 Bft) 100,00 %
22.03.2022 13:40 20,3 C 28,3 C 14,4 C 38 % 1031,1 hPa 0,0 l/m 2 min 0 min 657 W/m 3,2 km/h (1 Bft) 97,87 %
22.03.2022 13:42 20,3 C 29,4 C 14,4 C 38 % 1031,1 hPa 0,0 l/m 2 min 0 min 655 W/m 3,2 km/h (1 Bft) 97,87 %
22.03.2022 13:44 20,4 C 29,4 C 14,4 C 37 % 1031,1 hPa 0,0 l/m 2 min 0 min 654 W/m 6,4 km/h (2 Bft) 97,87 %
22.03.2022 13:46 20,4 C 28,9 C 15,0 C 37 % 1031,1 hPa 0,0 l/m 2 min 0 min 650 W/m 12,9 km/h (3 Bft) 97,87 %
22.03.2022 13:48 20,5 C 29,4 C 15,0 C 38 % 1031,0 hPa 0,0 l/m 2 min 0 min 645 W/m 6,4 km/h (2 Bft) 97,83 %
22.03.2022 13:50 20,6 C 29,4 C 15,0 C 38 % 1031,1 hPa 0,0 l/m 2 min 0 min 646 W/m 3,2 km/h (1 Bft) 97,87 %
22.03.2022 13:52 20,7 C 29,4 C 14,4 C 38 % 1031,0 hPa 0,0 l/m 2 min 0 min 644 W/m 6,4 km/h (2 Bft) 95,74 %
22.03.2022 13:54 20,7 C 30,0 C 15,0 C 38 % 1031,0 hPa 0,0 l/m 2 min 0 min 640 W/m 6,4 km/h (2 Bft) 97,87 %
22.03.2022 13:56 20,8 C 30,0 C 15,0 C 38 % 1030,9 hPa 0,0 l/m 2 min 0 min 637 W/m 3,2 km/h (1 Bft) 97,87 %
22.03.2022 13:58 20,9 C 28,3 C 15,0 C 37 % 1030,9 hPa 0,0 l/m 2 min 0 min 635 W/m 12,9 km/h (3 Bft) 97,87 %
22.03.2022 14:00 20,9 C 27,8 C 15,0 C 36 % 1030,9 hPa 0,0 l/m 2 min 0 min 633 W/m 6,4 km/h (2 Bft) 97,83 %
22.03.2022 14:02 20,8 C 27,8 C 15,0 C 36 % 1030,9 hPa 0,0 l/m 2 min 0 min 631 W/m 9,7 km/h (2 Bft) 95,74 %
22.03.2022 14:04 20,8 C 27,2 C 15,0 C 36 % 1030,9 hPa 0,0 l/m 2 min 0 min 629 W/m 12,9 km/h (3 Bft) 97,87 %
22.03.2022 14:06 20,8 C 27,8 C 15,0 C 36 % 1030,8 hPa 0,0 l/m 2 min 0 min 627 W/m 12,9 km/h (3 Bft) 97,87 %
22.03.2022 14:08 20,7 C 28,9 C 15,0 C 37 % 1030,8 hPa 0,0 l/m 2 min 0 min 626 W/m 6,4 km/h (2 Bft) 97,87 %
22.03.2022 14:10 20,6 C 28,9 C 15,0 C 37 % 1030,8 hPa 0,0 l/m 2 min 0 min 625 W/m 6,4 km/h (2 Bft) 97,87 %
22.03.2022 14:12 20,6 C 28,9 C 15,0 C 37 % 1030,7 hPa 0,0 l/m 2 min 0 min 624 W/m 3,2 km/h (1 Bft) 95,65 %
22.03.2022 14:14 20,6 C 28,9 C 15,0 C 37 % 1030,7 hPa 0,0 l/m 2 min 0 min 620 W/m 9,7 km/h (2 Bft) 100,00 %
22.03.2022 14:16 20,6 C 29,4 C 15,0 C 37 % 1030,6 hPa 0,0 l/m 2 min 0 min 617 W/m 6,4 km/h (2 Bft) 97,87 %
22.03.2022 14:18 20,7 C 28,3 C 15,0 C 36 % 1030,6 hPa 0,0 l/m 2 min 0 min 613 W/m 6,4 km/h (2 Bft) 97,87 %
22.03.2022 14:20 20,7 C 27,8 C 15,0 C 37 % 1030,7 hPa 0,0 l/m 2 min 0 min 610 W/m 6,4 km/h (2 Bft) 100,00 %
22.03.2022 14:22 20,7 C 27,8 C 15,0 C 37 % 1030,6 hPa 0,0 l/m 2 min 0 min 607 W/m 6,4 km/h (2 Bft) 100,00 %
22.03.2022 14:24 20,7 C 27,2 C 15,0 C 37 % 1030,6 hPa 0,0 l/m 2 min 0 min 605 W/m 12,9 km/h (3 Bft) 100,00 %
22.03.2022 14:26 20,7 C 25,6 C 15,0 C 36 % 1030,6 hPa 0,0 l/m 2 min 0 min 600 W/m 12,9 km/h (3 Bft) 100,00 %
22.03.2022 14:28 20,7 C 26,1 C 15,0 C 37 % 1030,6 hPa 0,0 l/m 2 min 0 min 597 W/m 9,7 km/h (2 Bft) 100,00 %
22.03.2022 14:30 20,7 C 25,6 C 15,0 C 37 % 1030,6 hPa 0,0 l/m 2 min 0 min 595 W/m 12,9 km/h (3 Bft) 100,00 %
22.03.2022 14:32 20,7 C 26,1 C 15,0 C 36 % 1030,5 hPa 0,0 l/m 2 min 0 min 593 W/m 6,4 km/h (2 Bft) 97,87 %
22.03.2022 14:34 20,6 C 26,1 C 15,0 C 37 % 1030,5 hPa 0,0 l/m 2 min 0 min 592 W/m 12,9 km/h (3 Bft) 100,00 %
22.03.2022 14:36 20,6 C 25,6 C 15,0 C 37 % 1030,5 hPa 0,0 l/m 2 min 0 min 588 W/m 12,9 km/h (3 Bft) 100,00 %
22.03.2022 14:38 20,6 C 25,0 C 15,0 C 37 % 1030,5 hPa 0,0 l/m 2 min 0 min 583 W/m 12,9 km/h (3 Bft) 100,00 %
22.03.2022 14:40 20,6 C 25,6 C 15,0 C 37 % 1030,5 hPa 0,0 l/m 2 min 0 min 579 W/m 12,9 km/h (3 Bft) 100,00 %
22.03.2022 14:42 20,6 C 26,1 C 15,0 C 38 % 1030,4 hPa 0,0 l/m 2 min 0 min 576 W/m 6,4 km/h (2 Bft) 100,00 %
22.03.2022 14:44 20,7 C 26,7 C 15,0 C 37 % 1030,4 hPa 0,0 l/m 2 min 0 min 572 W/m 3,2 km/h (1 Bft) 100,00 %
22.03.2022 14:46 20,7 C 26,7 C 15,0 C 37 % 1030,4 hPa 0,0 l/m 2 min 0 min 568 W/m 9,7 km/h (2 Bft) 100,00 %
22.03.2022 14:48 20,8 C 26,1 C 15,0 C 37 % 1030,4 hPa 0,0 l/m 2 min 0 min 563 W/m 12,9 km/h (3 Bft) 100,00 %
22.03.2022 14:50 20,8 C 26,7 C 15,0 C 37 % 1030,3 hPa 0,0 l/m 2 min 0 min 559 W/m 12,9 km/h (3 Bft) 100,00 %
22.03.2022 14:52 20,8 C 27,2 C 15,0 C 38 % 1030,4 hPa 0,0 l/m 2 min 0 min 556 W/m 9,7 km/h (2 Bft) 100,00 %
22.03.2022 14:54 20,8 C 27,2 C 15,0 C 38 % 1030,4 hPa 0,0 l/m 2 min 0 min 553 W/m 6,4 km/h (2 Bft) 100,00 %
22.03.2022 14:56 20,9 C 26,7 C 15,6 C 37 % 1030,3 hPa 0,0 l/m 2 min 0 min 549 W/m 9,7 km/h (2 Bft) 97,87 %
22.03.2022 14:58 20,9 C 27,2 C 15,6 C 38 % 1030,4 hPa 0,0 l/m 2 min 0 min 546 W/m 12,9 km/h (3 Bft) 100,00 %
22.03.2022 15:00 20,9 C 27,8 C 15,6 C 38 % 1030,3 hPa 0,0 l/m 2 min 0 min 541 W/m 3,2 km/h (1 Bft) 97,83 %
22.03.2022 15:02 21,1 C 28,3 C 15,6 C 39 % 1030,3 hPa 0,0 l/m 2 min 0 min 538 W/m 6,4 km/h (2 Bft) 97,87 %
22.03.2022 15:04 21,1 C 28,9 C 15,6 C 38 % 1030,2 hPa 0,0 l/m 2 min 0 min 536 W/m 12,9 km/h (3 Bft) 97,87 %
22.03.2022 15:06 21,1 C 28,9 C 15,6 C 38 % 1030,3 hPa 0,0 l/m 2 min 0 min 532 W/m 12,9 km/h (3 Bft) 97,87 %
22.03.2022 15:08 21,1 C 27,8 C 15,6 C 36 % 1030,2 hPa 0,0 l/m 2 min 0 min 528 W/m 9,7 km/h (2 Bft) 97,87 %
22.03.2022 15:10 21,1 C 28,3 C 15,6 C 37 % 1030,2 hPa 0,0 l/m 2 min 0 min 524 W/m 3,2 km/h (1 Bft) 97,83 %
22.03.2022 15:12 20,9 C 27,2 C 15,0 C 37 % 1030,2 hPa 0,0 l/m 2 min 0 min 516 W/m 6,4 km/h (2 Bft) 97,87 %
22.03.2022 15:14 20,9 C 27,8 C 15,0 C 36 % 1030,2 hPa 0,0 l/m 2 min 0 min 511 W/m 6,4 km/h (2 Bft) 97,87 %
22.03.2022 15:16 20,8 C 27,8 C 15,0 C 37 % 1030,1 hPa 0,0 l/m 2 min 0 min 509 W/m 12,9 km/h (3 Bft) 97,87 %
22.03.2022 15:18 20,8 C 28,9 C 15,6 C 37 % 1030,2 hPa 0,0 l/m 2 min 0 min 506 W/m 6,4 km/h (2 Bft) 95,74 %
22.03.2022 15:20 20,8 C 29,4 C 15,6 C 37 % 1030,1 hPa 0,0 l/m 2 min 0 min 505 W/m 6,4 km/h (2 Bft) 97,62 %
22.03.2022 15:22 20,8 C 29,4 C 15,6 C 37 % 1030,2 hPa 0,0 l/m 2 min 0 min 498 W/m 3,2 km/h (1 Bft) 97,83 %
22.03.2022 15:24 20,9 C 29,4 C 15,6 C 38 % 1030,1 hPa 0,0 l/m 2 min 0 min 493 W/m 6,4 km/h (2 Bft) 98,00 %
22.03.2022 15:26 21,0 C 29,4 C 15,6 C 38 % 1030,1 hPa 0,0 l/m 2 min 0 min 488 W/m 6,4 km/h (2 Bft) 97,87 %
22.03.2022 15:28 21,1 C 29,4 C 15,6 C 38 % 1030,1 hPa 0,0 l/m 2 min 0 min 483 W/m 9,7 km/h (2 Bft) 97,87 %
22.03.2022 15:30 21,1 C 28,3 C 16,1 C 38 % 1030,0 hPa 0,0 l/m 2 min 0 min 479 W/m 12,9 km/h (3 Bft) 97,87 %
22.03.2022 15:32 21,1 C 27,2 C 15,6 C 37 % 1030,0 hPa 0,0 l/m 2 min 0 min 473 W/m 16,1 km/h (3 Bft) 97,83 %
22.03.2022 15:34 21,1 C 28,3 C 16,1 C 37 % 1030,0 hPa 0,0 l/m 2 min 0 min 468 W/m 12,9 km/h (3 Bft) 95,74 %
22.03.2022 15:36 20,9 C 28,9 C 15,6 C 37 % 1030,0 hPa 0,0 l/m 2 min 0 min 464 W/m 6,4 km/h (2 Bft) 93,62 %
22.03.2022 15:38 20,8 C 27,8 C 15,6 C 37 % 1030,0 hPa 0,0 l/m 2 min 0 min 461 W/m 16,1 km/h (3 Bft) 93,62 %
22.03.2022 15:40 20,8 C 26,7 C 15,6 C 37 % 1030,0 hPa 0,0 l/m 2 min 0 min 457 W/m 12,9 km/h (3 Bft) 97,87 %
22.03.2022 15:42 20,9 C 27,8 C 15,6 C 37 % 1029,9 hPa 0,0 l/m 2 min 0 min 457 W/m 3,2 km/h (1 Bft) 95,74 %
22.03.2022 15:44 20,9 C 27,8 C 15,6 C 37 % 1029,9 hPa 0,0 l/m 2 min 0 min 451 W/m 6,4 km/h (2 Bft) 97,83 %
22.03.2022 15:46 21,0 C 28,3 C 15,6 C 38 % 1029,9 hPa 0,0 l/m 2 min 0 min 445 W/m 9,7 km/h (2 Bft) 97,87 %
22.03.2022 15:48 21,0 C 28,3 C 15,6 C 37 % 1029,9 hPa 0,0 l/m 2 min 0 min 438 W/m 6,4 km/h (2 Bft) 93,62 %
22.03.2022 15:50 21,1 C 28,9 C 15,6 C 38 % 1029,9 hPa 0,0 l/m 2 min 0 min 434 W/m 3,2 km/h (1 Bft) 97,87 %
22.03.2022 15:52 21,1 C 28,9 C 16,1 C 38 % 1029,9 hPa 0,0 l/m 2 min 0 min 429 W/m 12,9 km/h (3 Bft) 97,87 %
22.03.2022 15:54 21,1 C 27,2 C 15,6 C 36 % 1029,9 hPa 0,0 l/m 2 min 0 min 423 W/m 16,1 km/h (3 Bft) 93,62 %
22.03.2022 15:56 21,1 C 28,3 C 15,6 C 36 % 1029,9 hPa 0,0 l/m 2 min 0 min 421 W/m 3,2 km/h (1 Bft) 95,65 %
22.03.2022 15:58 21,1 C 28,3 C 15,6 C 37 % 1029,9 hPa 0,0 l/m 2 min 0 min 418 W/m 9,7 km/h (2 Bft) 95,74 %
22.03.2022 16:00 21,1 C 27,8 C 15,6 C 37 % 1029,9 hPa 0,0 l/m 2 min 0 min 412 W/m 6,4 km/h (2 Bft) 95,74 %
22.03.2022 16:02 21,2 C 28,3 C 15,6 C 37 % 1029,9 hPa 0,0 l/m 2 min 0 min 405 W/m 6,4 km/h (2 Bft) 95,74 %
22.03.2022 16:04 21,1 C 27,2 C 15,0 C 36 % 1029,7 hPa 0,0 l/m 2 min 0 min 398 W/m 16,1 km/h (3 Bft) 95,74 %
22.03.2022 16:06 21,0 C 26,1 C 15,0 C 36 % 1029,8 hPa 0,0 l/m 2 min 0 min 396 W/m 16,1 km/h (3 Bft) 97,87 %
22.03.2022 16:08 21,0 C 27,2 C 15,0 C 38 % 1029,8 hPa 0,0 l/m 2 min 0 min 391 W/m 12,9 km/h (3 Bft) 95,65 %
22.03.2022 16:10 21,0 C 27,8 C 15,0 C 38 % 1029,7 hPa 0,0 l/m 2 min 0 min 384 W/m 9,7 km/h (2 Bft) 95,74 %
22.03.2022 16:12 20,9 C 27,8 C 15,0 C 38 % 1029,7 hPa 0,0 l/m 2 min 0 min 379 W/m 12,9 km/h (3 Bft) 95,74 %
22.03.2022 16:14 20,8 C 27,2 C 15,0 C 38 % 1029,6 hPa 0,0 l/m 2 min 0 min 374 W/m 16,1 km/h (3 Bft) 93,62 %
22.03.2022 16:16 20,7 C 27,2 C 15,0 C 38 % 1029,6 hPa 0,0 l/m 2 min 0 min 368 W/m 12,9 km/h (3 Bft) 93,62 %
22.03.2022 16:18 20,7 C 27,8 C 15,0 C 39 % 1029,6 hPa 0,0 l/m 2 min 0 min 364 W/m 9,7 km/h (2 Bft) 91,49 %
22.03.2022 16:20 20,6 C 27,8 C 14,4 C 38 % 1029,6 hPa 0,0 l/m 2 min 0 min 358 W/m 6,4 km/h (2 Bft) 95,65 %
22.03.2022 16:22 20,5 C 27,8 C 14,4 C 38 % 1029,6 hPa 0,0 l/m 2 min 0 min 351 W/m 12,9 km/h (3 Bft) 93,62 %
22.03.2022 16:24 20,3 C 27,2 C 14,4 C 38 % 1029,6 hPa 0,0 l/m 2 min 0 min 346 W/m 19,3 km/h (3 Bft) 95,74 %
22.03.2022 16:26 20,2 C 27,2 C 14,4 C 38 % 1029,6 hPa 0,0 l/m 2 min 0 min 342 W/m 12,9 km/h (3 Bft) 93,62 %
22.03.2022 16:28 20,0 C 26,7 C 14,4 C 38 % 1029,6 hPa 0,0 l/m 2 min 0 min 336 W/m 12,9 km/h (3 Bft) 95,74 %
22.03.2022 16:30 20,0 C 26,7 C 14,4 C 38 % 1029,5 hPa 0,0 l/m 2 min 0 min 330 W/m 6,4 km/h (2 Bft) 95,74 %
22.03.2022 16:32 20,0 C 26,7 C 14,4 C 39 % 1029,6 hPa 0,0 l/m 2 min 0 min 323 W/m 9,7 km/h (2 Bft) 97,83 %
22.03.2022 16:34 19,9 C 26,7 C 14,4 C 39 % 1029,5 hPa 0,0 l/m 2 min 0 min 316 W/m 9,7 km/h (2 Bft) 95,74 %
22.03.2022 16:36 19,8 C 26,7 C 13,9 C 40 % 1029,5 hPa 0,0 l/m 2 min 0 min 312 W/m 9,7 km/h (2 Bft) 97,87 %
22.03.2022 16:38 19,7 C 26,7 C 13,9 C 41 % 1029,5 hPa 0,0 l/m 2 min 0 min 308 W/m 12,9 km/h (3 Bft) 97,87 %
22.03.2022 16:40 19,7 C 26,7 C 13,9 C 40 % 1029,5 hPa 0,0 l/m 2 min 0 min 300 W/m 9,7 km/h (2 Bft) 95,74 %
22.03.2022 16:42 19,7 C 26,7 C 13,9 C 41 % 1029,5 hPa 0,0 l/m 2 min 0 min 295 W/m 9,7 km/h (2 Bft) 97,87 %
22.03.2022 16:44 19,8 C 26,1 C 13,9 C 40 % 1029,5 hPa 0,0 l/m 2 min 0 min 289 W/m 9,7 km/h (2 Bft) 100,00 %
22.03.2022 16:46 19,7 C 25,6 C 13,9 C 40 % 1029,4 hPa 0,0 l/m 2 min 0 min 282 W/m 12,9 km/h (3 Bft) 100,00 %
22.03.2022 16:48 19,7 C 25,0 C 13,9 C 39 % 1029,4 hPa 0,0 l/m 2 min 0 min 276 W/m 12,9 km/h (3 Bft) 100,00 %
22.03.2022 16:50 19,6 C 25,0 C 13,9 C 41 % 1029,4 hPa 0,0 l/m 2 min 0 min 269 W/m 6,4 km/h (2 Bft) 95,74 %
22.03.2022 16:52 19,6 C 25,0 C 13,3 C 41 % 1029,4 hPa 0,0 l/m 2 min 0 min 263 W/m 6,4 km/h (2 Bft) 100,00 %
22.03.2022 16:54 19,6 C 25,0 C 13,9 C 41 % 1029,4 hPa 0,0 l/m 2 min 0 min 258 W/m 6,4 km/h (2 Bft) 97,87 %
22.03.2022 16:56 19,5 C 25,0 C 13,3 C 41 % 1029,3 hPa 0,0 l/m 2 min 0 min 252 W/m 6,4 km/h (2 Bft) 97,83 %
22.03.2022 16:58 19,4 C 25,0 C 13,9 C 40 % 1029,4 hPa 0,0 l/m 2 min 0 min 243 W/m 9,7 km/h (2 Bft) 100,00 %
22.03.2022 17:00 19,3 C 24,4 C 13,9 C 39 % 1029,3 hPa 0,0 l/m 2 min 0 min 236 W/m 9,7 km/h (2 Bft) 100,00 %
22.03.2022 17:02 19,3 C 24,4 C 13,9 C 40 % 1029,3 hPa 0,0 l/m 2 min 0 min 230 W/m 6,4 km/h (2 Bft) 100,00 %
22.03.2022 17:04 19,4 C 23,9 C 13,9 C 39 % 1029,3 hPa 0,0 l/m 2 min 0 min 222 W/m 6,4 km/h (2 Bft) 100,00 %
22.03.2022 17:06 19,4 C 23,3 C 13,3 C 41 % 1029,3 hPa 0,0 l/m 2 min 0 min 215 W/m 6,4 km/h (2 Bft) 100,00 %
22.03.2022 17:08 19,3 C 22,8 C 13,3 C 41 % 1029,3 hPa 0,0 l/m 2 min 0 min 208 W/m 6,4 km/h (2 Bft) 100,00 %
22.03.2022 17:10 19,3 C 21,7 C 13,3 C 42 % 1029,3 hPa 0,0 l/m 2 min 0 min 200 W/m 12,9 km/h (3 Bft) 100,00 %
22.03.2022 17:12 19,3 C 20,6 C 13,9 C 38 % 1029,4 hPa 0,0 l/m 2 min 0 min 193 W/m 22,5 km/h (4 Bft) 100,00 %
22.03.2022 17:14 19,3 C 20,0 C 13,9 C 36 % 1029,3 hPa 0,0 l/m 2 min 0 min 186 W/m 22,5 km/h (4 Bft) 100,00 %
22.03.2022 17:16 19,3 C 20,0 C 13,9 C 36 % 1029,3 hPa 0,0 l/m 2 min 0 min 181 W/m 16,1 km/h (3 Bft) 100,00 %
22.03.2022 17:18 19,3 C 20,0 C 13,9 C 36 % 1029,4 hPa 0,0 l/m 2 min 0 min 175 W/m 12,9 km/h (3 Bft) 100,00 %
22.03.2022 17:20 19,3 C 20,0 C 13,9 C 36 % 1029,4 hPa 0,0 l/m 2 min 0 min 168 W/m 16,1 km/h (3 Bft) 100,00 %
22.03.2022 17:22 19,4 C 20,0 C 13,9 C 36 % 1029,4 hPa 0,0 l/m 2 min 0 min 162 W/m 16,1 km/h (3 Bft) 100,00 %
22.03.2022 17:24 19,3 C 20,6 C 13,9 C 35 % 1029,4 hPa 0,0 l/m 2 min 0 min 156 W/m 16,1 km/h (3 Bft) 100,00 %
22.03.2022 17:26 19,3 C 20,6 C 13,9 C 35 % 1029,4 hPa 0,0 l/m 2 min 0 min 151 W/m 12,9 km/h (3 Bft) 100,00 %
22.03.2022 17:28 19,3 C 20,6 C 13,9 C 35 % 1029,4 hPa 0,0 l/m 2 min 0 min 144 W/m 12,9 km/h (3 Bft) 100,00 %
22.03.2022 17:30 19,3 C 21,1 C 13,9 C 35 % 1029,4 hPa 0,0 l/m 2 min 0 min 137 W/m 12,9 km/h (3 Bft) 100,00 %
22.03.2022 17:32 19,3 C 21,1 C 13,9 C 35 % 1029,4 hPa 0,0 l/m 2 min 0 min 132 W/m 12,9 km/h (3 Bft) 100,00 %
22.03.2022 17:34 19,3 C 21,1 C 13,9 C 36 % 1029,4 hPa 0,0 l/m 2 min 0 min 126 W/m 12,9 km/h (3 Bft) 100,00 %
22.03.2022 17:36 19,3 C 21,1 C 13,9 C 35 % 1029,4 hPa 0,0 l/m 2 min 0 min 120 W/m 12,9 km/h (3 Bft) 100,00 %
22.03.2022 17:38 19,2 C 20,6 C 13,9 C 35 % 1029,4 hPa 0,0 l/m 2 min 0 min 114 W/m 12,9 km/h (3 Bft) 95,74 %
22.03.2022 17:40 19,2 C 20,6 C 13,9 C 35 % 1029,4 hPa 0,0 l/m 2 min 0 min 109 W/m 9,7 km/h (2 Bft) 97,87 %
22.03.2022 17:42 19,2 C 20,6 C 13,9 C 35 % 1029,4 hPa 0,0 l/m 2 min 0 min 104 W/m 16,1 km/h (3 Bft) 97,83 %
22.03.2022 17:44 19,1 C 20,6 C 13,3 C 35 % 1029,4 hPa 0,0 l/m 2 min 0 min 97 W/m 6,4 km/h (2 Bft) 97,87 %
22.03.2022 17:46 19,1 C 20,6 C 13,3 C 35 % 1029,4 hPa 0,0 l/m 2 min 0 min 92 W/m 9,7 km/h (2 Bft) 97,87 %
22.03.2022 17:48 19,1 C 20,0 C 13,3 C 35 % 1029,4 hPa 0,0 l/m 2 min 0 min 88 W/m 9,7 km/h (2 Bft) 97,87 %
22.03.2022 17:50 19,1 C 20,0 C 13,3 C 35 % 1029,4 hPa 0,0 l/m 2 min 0 min 82 W/m 6,4 km/h (2 Bft) 97,87 %
22.03.2022 17:52 19,1 C 19,4 C 13,3 C 35 % 1029,5 hPa 0,0 l/m 2 min 0 min 77 W/m 6,4 km/h (2 Bft) 97,87 %
22.03.2022 17:54 19,1 C 18,9 C 12,8 C 35 % 1029,5 hPa 0,0 l/m 2 min 0 min 72 W/m 6,4 km/h (2 Bft) 97,83 %
22.03.2022 17:56 19,0 C 18,9 C 12,8 C 35 % 1029,5 hPa 0,0 l/m 2 min 0 min 68 W/m 9,7 km/h (2 Bft) 95,74 %
22.03.2022 17:58 19,0 C 18,9 C 12,8 C 37 % 1029,6 hPa 0,0 l/m 2 min 0 min 63 W/m 6,4 km/h (2 Bft) 95,74 %
22.03.2022 18:00 18,9 C 18,3 C 12,8 C 35 % 1029,6 hPa 0,0 l/m 0 min 0 min 60 W/m 9,7 km/h (2 Bft) 95,74 %
22.03.2022 18:02 18,9 C 18,3 C 12,8 C 35 % 1029,5 hPa 0,0 l/m 0 min 0 min 49 W/m 6,4 km/h (2 Bft) 97,87 %
22.03.2022 18:04 18,9 C 17,8 C 12,8 C 35 % 1029,6 hPa 0,0 l/m 0 min 0 min 34 W/m 3,2 km/h (1 Bft) 97,87 %
22.03.2022 18:08 18,8 C 17,2 C 12,8 C 35 % 1029,6 hPa 0,0 l/m 0 min 0 min 31 W/m 9,7 km/h (2 Bft) 97,85 %
22.03.2022 18:10 18,7 C 17,2 C 12,2 C 35 % 1029,6 hPa 0,0 l/m 0 min 0 min 29 W/m 9,7 km/h (2 Bft) 95,74 %
22.03.2022 18:12 18,6 C 17,2 C 12,2 C 35 % 1029,6 hPa 0,0 l/m 0 min 0 min 28 W/m 9,7 km/h (2 Bft) 95,74 %
22.03.2022 18:14 18,6 C 16,7 C 12,2 C 35 % 1029,6 hPa 0,0 l/m 0 min 0 min 26 W/m 9,7 km/h (2 Bft) 95,74 %
22.03.2022 18:16 18,5 C 16,7 C 12,2 C 36 % 1029,6 hPa 0,0 l/m 0 min 0 min 26 W/m 3,2 km/h (1 Bft) 95,74 %
22.03.2022 18:18 18,4 C 16,7 C 12,2 C 34 % 1029,6 hPa 0,0 l/m 0 min 0 min 25 W/m 6,4 km/h (2 Bft) 93,48 %
22.03.2022 18:20 18,4 C 16,7 C 11,7 C 35 % 1029,7 hPa 0,0 l/m 0 min 0 min 23 W/m 3,2 km/h (1 Bft) 95,74 %
22.03.2022 18:22 18,3 C 16,7 C 11,7 C 35 % 1029,6 hPa 0,0 l/m 0 min 0 min 21 W/m 3,2 km/h (1 Bft) 97,87 %
22.03.2022 18:24 18,2 C 16,1 C 11,7 C 35 % 1029,6 hPa 0,0 l/m 0 min 0 min 20 W/m 3,2 km/h (1 Bft) 97,87 %
22.03.2022 18:26 18,1 C 16,1 C 11,7 C 35 % 1029,6 hPa 0,0 l/m 0 min 0 min 19 W/m 6,4 km/h (2 Bft) 97,87 %
22.03.2022 18:28 18,1 C 16,1 C 11,1 C 35 % 1029,7 hPa 0,0 l/m 0 min 0 min 18 W/m 6,4 km/h (2 Bft) 97,87 %
22.03.2022 18:30 17,9 C 16,1 C 11,1 C 35 % 1029,7 hPa 0,0 l/m 0 min 0 min 16 W/m 6,4 km/h (2 Bft) 95,65 %
22.03.2022 18:32 17,9 C 16,1 C 11,1 C 36 % 1029,7 hPa 0,0 l/m 0 min 0 min 15 W/m 3,2 km/h (1 Bft) 95,74 %
22.03.2022 18:34 17,8 C 16,1 C 11,1 C 36 % 1029,6 hPa 0,0 l/m 0 min 0 min 13 W/m 3,2 km/h (1 Bft) 93,62 %
22.03.2022 18:36 17,7 C 16,1 C 10,6 C 36 % 1029,6 hPa 0,0 l/m 0 min 0 min 12 W/m 0,0 km/h (0 Bft) 97,87 %
22.03.2022 18:38 17,6 C 15,6 C 10,6 C 37 % 1029,6 hPa 0,0 l/m 0 min 0 min 11 W/m 0,0 km/h (0 Bft) 97,87 %
22.03.2022 18:40 17,6 C 15,6 C 10,0 C 37 % 1029,7 hPa 0,0 l/m 0 min 0 min 10 W/m 0,0 km/h (0 Bft) 97,87 %
22.03.2022 18:42 17,5 C 15,0 C 9,4 C 39 % 1029,7 hPa 0,0 l/m 0 min 0 min 9 W/m 0,0 km/h (0 Bft) 95,65 %
22.03.2022 18:44 17,5 C 15,0 C 9,4 C 40 % 1029,7 hPa 0,0 l/m 0 min 0 min 8 W/m 0,0 km/h (0 Bft) 95,74 %
22.03.2022 18:46 17,4 C 14,4 C 8,9 C 42 % 1029,7 hPa 0,0 l/m 0 min 0 min 7 W/m 0,0 km/h (0 Bft) 95,74 %
22.03.2022 18:48 17,3 C 14,4 C 8,9 C 42 % 1029,7 hPa 0,0 l/m 0 min 0 min 5 W/m 0,0 km/h (0 Bft) 95,74 %
22.03.2022 18:50 17,2 C 14,4 C 8,9 C 43 % 1029,7 hPa 0,0 l/m 0 min 0 min 5 W/m 0,0 km/h (0 Bft) 97,87 %
22.03.2022 18:52 17,1 C 13,9 C 8,3 C 44 % 1029,7 hPa 0,0 l/m 0 min 0 min 1 W/m 0,0 km/h (0 Bft) 97,87 %
22.03.2022 18:54 16,9 C 13,9 C 8,3 C 44 % 1029,7 hPa 0,0 l/m 0 min 0 min 0 W/m 0,0 km/h (0 Bft) 97,83 %
22.03.2022 18:56 16,8 C 13,9 C 8,3 C 44 % 1029,8 hPa 0,0 l/m 0 min 0 min 0 W/m 0,0 km/h (0 Bft) 97,87 %
22.03.2022 18:58 16,7 C 13,3 C 7,8 C 45 % 1029,8 hPa 0,0 l/m 0 min 0 min 0 W/m 0,0 km/h (0 Bft) 97,87 %
22.03.2022 19:00 16,6 C 13,3 C 7,8 C 46 % 1029,7 hPa 0,0 l/m 0 min 0 min 0 W/m 0,0 km/h (0 Bft) 95,74 %
22.03.2022 19:02 16,4 C 13,3 C 7,8 C 46 % 1029,8 hPa 0,0 l/m 0 min 0 min 0 W/m 0,0 km/h (0 Bft) 97,96 %
22.03.2022 19:04 16,2 C 12,8 C 7,2 C 46 % 1029,8 hPa 0,0 l/m 0 min 0 min 0 W/m 9,7 km/h (2 Bft) 97,87 %
22.03.2022 19:06 16,1 C 12,8 C 7,8 C 45 % 1029,9 hPa 0,0 l/m 0 min 0 min 0 W/m 9,7 km/h (2 Bft) 97,83 %
22.03.2022 19:08 16,0 C 12,8 C 7,8 C 44 % 1029,9 hPa 0,0 l/m 0 min 0 min 0 W/m 3,2 km/h (1 Bft) 95,74 %
22.03.2022 19:10 15,9 C 12,8 C 7,8 C 45 % 1029,9 hPa 0,0 l/m 0 min 0 min 0 W/m 3,2 km/h (1 Bft) 97,87 %
22.03.2022 19:12 15,8 C 12,8 C 7,8 C 46 % 1029,9 hPa 0,0 l/m 0 min 0 min 0 W/m 3,2 km/h (1 Bft) 97,87 %
22.03.2022 19:14 15,7 C 12,8 C 7,8 C 47 % 1029,9 hPa 0,0 l/m 0 min 0 min 0 W/m 3,2 km/h (1 Bft) 95,74 %
22.03.2022 19:16 15,5 C 12,8 C 7,8 C 47 % 1029,9 hPa 0,0 l/m 0 min 0 min 0 W/m 0,0 km/h (0 Bft) 97,83 %
22.03.2022 19:18 15,3 C 12,2 C 7,2 C 47 % 1029,9 hPa 0,0 l/m 0 min 0 min 0 W/m 0,0 km/h (0 Bft) 100,00 %
22.03.2022 19:20 15,2 C 12,2 C 7,2 C 49 % 1029,9 hPa 0,0 l/m 0 min 0 min 0 W/m 0,0 km/h (0 Bft) 100,00 %
22.03.2022 19:22 15,1 C 12,2 C 7,2 C 49 % 1030,0 hPa 0,0 l/m 0 min 0 min 0 W/m 0,0 km/h (0 Bft) 100,00 %
22.03.2022 19:24 14,9 C 12,2 C 7,2 C 50 % 1030,0 hPa 0,0 l/m 0 min 0 min 0 W/m 0,0 km/h (0 Bft) 100,00 %
22.03.2022 19:26 14,7 C 12,2 C 6,7 C 49 % 1030,0 hPa 0,0 l/m 0 min 0 min 0 W/m 0,0 km/h (0 Bft) 100,00 %
22.03.2022 19:28 14,6 C 11,7 C 6,7 C 50 % 1030,0 hPa 0,0 l/m 0 min 0 min 0 W/m 0,0 km/h (0 Bft) 100,00 %
22.03.2022 19:30 14,5 C 11,7 C 6,7 C 51 % 1030,0 hPa 0,0 l/m 0 min 0 min 0 W/m 0,0 km/h (0 Bft) 100,00 %
22.03.2022 19:32 14,3 C 11,7 C 6,7 C 50 % 1030,1 hPa 0,0 l/m 0 min 0 min 0 W/m 0,0 km/h (0 Bft) 97,87 %
22.03.2022 19:34 14,3 C 11,7 C 6,7 C 52 % 1030,0 hPa 0,0 l/m 0 min 0 min 0 W/m 0,0 km/h (0 Bft) 100,00 %
22.03.2022 19:36 14,3 C 11,7 C 6,7 C 53 % 1030,0 hPa 0,0 l/m 0 min 0 min 0 W/m 0,0 km/h (0 Bft) 100,00 %
22.03.2022 19:38 14,1 C 11,7 C 6,7 C 53 % 1030,0 hPa 0,0 l/m 0 min 0 min 0 W/m 0,0 km/h (0 Bft) 100,00 %
22.03.2022 19:40 14,0 C 11,7 C 6,7 C 53 % 1030,0 hPa 0,0 l/m 0 min 0 min 0 W/m 3,2 km/h (1 Bft) 100,00 %
22.03.2022 19:42 13,9 C 11,7 C 6,7 C 52 % 1030,1 hPa 0,0 l/m 0 min 0 min 0 W/m 3,2 km/h (1 Bft) 97,87 %
22.03.2022 19:44 13,8 C 11,7 C 6,7 C 52 % 1030,0 hPa 0,0 l/m 0 min 0 min 0 W/m 3,2 km/h (1 Bft) 100,00 %
22.03.2022 19:46 13,7 C 11,7 C 6,7 C 53 % 1030,1 hPa 0,0 l/m 0 min 0 min 0 W/m 0,0 km/h (0 Bft) 100,00 %
22.03.2022 19:48 13,7 C 11,7 C 6,7 C 54 % 1030,1 hPa 0,0 l/m 0 min 0 min 0 W/m 0,0 km/h (0 Bft) 97,87 %
22.03.2022 19:50 13,6 C 11,1 C 6,7 C 54 % 1030,1 hPa 0,0 l/m 0 min 0 min 0 W/m 0,0 km/h (0 Bft) 100,00 %
22.03.2022 19:52 13,6 C 11,1 C 6,7 C 54 % 1030,1 hPa 0,0 l/m 0 min 0 min 0 W/m 0,0 km/h (0 Bft) 97,83 %
22.03.2022 19:54 13,4 C 11,1 C 6,7 C 53 % 1030,1 hPa 0,0 l/m 0 min 0 min 0 W/m 0,0 km/h (0 Bft) 97,87 %
22.03.2022 19:56 13,4 C 11,1 C 6,7 C 54 % 1030,2 hPa 0,0 l/m 0 min 0 min 0 W/m 0,0 km/h (0 Bft) 100,00 %
22.03.2022 19:58 13,3 C 11,1 C 6,1 C 54 % 1030,1 hPa 0,0 l/m 0 min 0 min 0 W/m 0,0 km/h (0 Bft) 97,87 %
22.03.2022 20:00 13,3 C 11,1 C 6,1 C 53 % 1030,2 hPa 0,0 l/m 0 min 0 min 0 W/m 0,0 km/h (0 Bft) 97,87 %
22.03.2022 20:02 13,2 C 11,1 C 6,1 C 54 % 1030,2 hPa 0,0 l/m 0 min 0 min 0 W/m 0,0 km/h (0 Bft) 97,87 %
22.03.2022 20:04 13,1 C 11,1 C 6,1 C 55 % 1030,1 hPa 0,0 l/m 0 min 0 min 0 W/m 0,0 km/h (0 Bft) 97,83 %
22.03.2022 20:06 13,1 C 11,1 C 6,1 C 56 % 1030,2 hPa 0,0 l/m 0 min 0 min 0 W/m 0,0 km/h (0 Bft) 97,87 %
22.03.2022 20:08 12,9 C 10,6 C 5,6 C 55 % 1030,2 hPa 0,0 l/m 0 min 0 min 0 W/m 0,0 km/h (0 Bft) 97,87 %
22.03.2022 20:10 12,9 C 10,6 C 5,6 C 56 % 1030,2 hPa 0,0 l/m 0 min 0 min 0 W/m 0,0 km/h (0 Bft) 97,87 %
22.03.2022 20:12 12,8 C 10,6 C 5,6 C 56 % 1030,2 hPa 0,0 l/m 0 min 0 min 0 W/m 0,0 km/h (0 Bft) 97,87 %
22.03.2022 20:14 12,7 C 10,6 C 5,6 C 55 % 1030,2 hPa 0,0 l/m 0 min 0 min 0 W/m 0,0 km/h (0 Bft) 97,87 %
22.03.2022 20:16 12,6 C 10,6 C 5,6 C 56 % 1030,2 hPa 0,0 l/m 0 min 0 min 0 W/m 0,0 km/h (0 Bft) 97,83 %
22.03.2022 20:18 12,6 C 10,6 C 5,6 C 56 % 1030,2 hPa 0,0 l/m 0 min 0 min 0 W/m 0,0 km/h (0 Bft) 97,87 %
22.03.2022 20:20 12,5 C 10,6 C 5,6 C 57 % 1030,3 hPa 0,0 l/m 0 min 0 min 0 W/m 0,0 km/h (0 Bft) 97,87 %
22.03.2022 20:22 12,4 C 10,0 C 5,6 C 58 % 1030,3 hPa 0,0 l/m 0 min 0 min 0 W/m 0,0 km/h (0 Bft) 95,74 %
22.03.2022 20:24 12,4 C 10,0 C 5,6 C 57 % 1030,3 hPa 0,0 l/m 0 min 0 min 0 W/m 0,0 km/h (0 Bft) 95,74 %
22.03.2022 20:26 12,3 C 10,0 C 5,6 C 57 % 1030,3 hPa 0,0 l/m 0 min 0 min 0 W/m 0,0 km/h (0 Bft) 95,74 %
22.03.2022 20:28 12,2 C 10,0 C 5,0 C 58 % 1030,3 hPa 0,0 l/m 0 min 0 min 0 W/m 0,0 km/h (0 Bft) 95,65 %
22.03.2022 20:30 12,2 C 10,0 C 5,0 C 59 % 1030,3 hPa 0,0 l/m 0 min 0 min 0 W/m 0,0 km/h (0 Bft) 97,87 %
22.03.2022 20:32 12,1 C 10,0 C 5,0 C 59 % 1030,3 hPa 0,0 l/m 0 min 0 min 0 W/m 0,0 km/h (0 Bft) 97,87 %
22.03.2022 20:34 12,1 C 10,0 C 5,0 C 59 % 1030,2 hPa 0,0 l/m 0 min 0 min 0 W/m 0,0 km/h (0 Bft) 97,87 %
22.03.2022 20:36 11,9 C 9,4 C 5,0 C 59 % 1030,3 hPa 0,0 l/m 0 min 0 min 0 W/m 0,0 km/h (0 Bft) 97,87 %
22.03.2022 20:38 11,9 C 9,4 C 5,0 C 58 % 1030,3 hPa 0,0 l/m 0 min 0 min 0 W/m 0,0 km/h (0 Bft) 97,87 %
22.03.2022 20:40 11,8 C 10,0 C 5,0 C 58 % 1030,3 hPa 0,0 l/m 0 min 0 min 0 W/m 0,0 km/h (0 Bft) 97,83 %
22.03.2022 20:42 11,7 C 9,4 C 5,0 C 58 % 1030,2 hPa 0,0 l/m 0 min 0 min 0 W/m 0,0 km/h (0 Bft) 95,74 %
22.03.2022 20:44 11,7 C 9,4 C 5,0 C 58 % 1030,2 hPa 0,0 l/m 0 min 0 min 0 W/m 0,0 km/h (0 Bft) 97,87 %
22.03.2022 20:46 11,6 C 9,4 C 5,0 C 58 % 1030,3 hPa 0,0 l/m 0 min 0 min 0 W/m 0,0 km/h (0 Bft) 97,87 %
22.03.2022 20:48 11,6 C 9,4 C 5,0 C 59 % 1030,3 hPa 0,0 l/m 0 min 0 min 0 W/m 0,0 km/h (0 Bft) 97,87 %
22.03.2022 20:50 11,5 C 9,4 C 4,4 C 60 % 1030,3 hPa 0,0 l/m 0 min 0 min 0 W/m 0,0 km/h (0 Bft) 97,87 %
22.03.2022 20:52 11,4 C 9,4 C 4,4 C 61 % 1030,3 hPa 0,0 l/m 0 min 0 min 0 W/m 0,0 km/h (0 Bft) 95,65 %
22.03.2022 20:54 11,4 C 9,4 C 4,4 C 61 % 1030,3 hPa 0,0 l/m 0 min 0 min 0 W/m 0,0 km/h (0 Bft) 100,00 %
22.03.2022 20:56 11,4 C 9,4 C 4,4 C 61 % 1030,3 hPa 0,0 l/m 0 min 0 min 0 W/m 0,0 km/h (0 Bft) 95,74 %
22.03.2022 20:58 11,3 C 9,4 C 4,4 C 62 % 1030,3 hPa 0,0 l/m 0 min 0 min 0 W/m 0,0 km/h (0 Bft) 95,74 %
22.03.2022 21:00 11,3 C 8,9 C 4,4 C 63 % 1030,3 hPa 0,0 l/m 0 min 0 min 0 W/m 0,0 km/h (0 Bft) 95,74 %
22.03.2022 21:02 11,2 C 8,9 C 4,4 C 63 % 1030,3 hPa 0,0 l/m 0 min 0 min 0 W/m 0,0 km/h (0 Bft) 97,87 %
22.03.2022 21:04 11,1 C 8,9 C 4,4 C 63 % 1030,3 hPa 0,0 l/m 0 min 0 min 0 W/m 0,0 km/h (0 Bft) 95,65 %
22.03.2022 21:06 11,1 C 8,9 C 4,4 C 62 % 1030,4 hPa 0,0 l/m 0 min 0 min 0 W/m 0,0 km/h (0 Bft) 95,74 %
22.03.2022 21:08 11,0 C 8,9 C 4,4 C 62 % 1030,3 hPa 0,0 l/m 0 min 0 min 0 W/m 0,0 km/h (0 Bft) 97,87 %
22.03.2022 21:10 10,9 C 8,9 C 4,4 C 62 % 1030,3 hPa 0,0 l/m 0 min 0 min 0 W/m 0,0 km/h (0 Bft) 97,87 %
22.03.2022 21:12 10,9 C 8,9 C 4,4 C 62 % 1030,3 hPa 0,0 l/m 0 min 0 min 0 W/m 0,0 km/h (0 Bft) 95,74 %
22.03.2022 21:14 10,8 C 8,9 C 4,4 C 62 % 1030,3 hPa 0,0 l/m 0 min 0 min 0 W/m 0,0 km/h (0 Bft) 97,83 %
22.03.2022 21:16 10,8 C 8,9 C 4,4 C 62 % 1030,3 hPa 0,0 l/m 0 min 0 min 0 W/m 0,0 km/h (0 Bft) 95,74 %
22.03.2022 21:18 10,7 C 8,9 C 3,9 C 62 % 1030,3 hPa 0,0 l/m 0 min 0 min 0 W/m 0,0 km/h (0 Bft) 97,87 %
22.03.2022 21:20 10,7 C 8,9 C 3,9 C 63 % 1030,4 hPa 0,0 l/m 0 min 0 min 0 W/m 0,0 km/h (0 Bft) 97,87 %
22.03.2022 21:22 10,6 C 8,9 C 3,9 C 63 % 1030,4 hPa 0,0 l/m 0 min 0 min 0 W/m 0,0 km/h (0 Bft) 95,74 %
22.03.2022 21:24 10,6 C 8,3 C 3,9 C 64 % 1030,3 hPa 0,0 l/m 0 min 0 min 0 W/m 0,0 km/h (0 Bft) 97,87 %
22.03.2022 21:26 10,6 C 8,3 C 3,9 C 65 % 1030,4 hPa 0,0 l/m 0 min 0 min 0 W/m 0,0 km/h (0 Bft) 97,83 %
22.03.2022 21:28 10,5 C 8,3 C 3,9 C 65 % 1030,4 hPa 0,0 l/m 0 min 0 min 0 W/m 0,0 km/h (0 Bft) 97,87 %
22.03.2022 21:30 10,4 C 8,3 C 3,9 C 65 % 1030,4 hPa 0,0 l/m 0 min 0 min 0 W/m 0,0 km/h (0 Bft) 97,87 %
22.03.2022 21:32 10,4 C 8,3 C 3,9 C 65 % 1030,4 hPa 0,0 l/m 0 min 0 min 0 W/m 0,0 km/h (0 Bft) 97,87 %
22.03.2022 21:34 10,3 C 8,3 C 3,9 C 65 % 1030,4 hPa 0,0 l/m 0 min 0 min 0 W/m 0,0 km/h (0 Bft) 97,87 %
22.03.2022 21:36 10,3 C 8,3 C 3,9 C 65 % 1030,4 hPa 0,0 l/m 0 min 0 min 0 W/m 0,0 km/h (0 Bft) 95,74 %
22.03.2022 21:38 10,2 C 8,3 C 3,9 C 65 % 1030,4 hPa 0,0 l/m 0 min 0 min 0 W/m 0,0 km/h (0 Bft) 95,65 %
22.03.2022 21:40 10,2 C 8,3 C 3,3 C 66 % 1030,4 hPa 0,0 l/m 0 min 0 min 0 W/m 0,0 km/h (0 Bft) 91,49 %
22.03.2022 21:42 10,1 C 8,3 C 3,3 C 66 % 1030,4 hPa 0,0 l/m 0 min 0 min 0 W/m 0,0 km/h (0 Bft) 53,33 %
22.03.2022 21:44 10,1 C 8,3 C 3,3 C 66 % 1030,4 hPa 0,0 l/m 0 min 0 min 0 W/m 0,0 km/h (0 Bft) 95,74 %
22.03.2022 21:46 10,0 C 8,3 C 3,3 C 66 % 1030,4 hPa 0,0 l/m 0 min 0 min 0 W/m 0,0 km/h (0 Bft) 95,74 %
22.03.2022 21:48 9,9 C 8,3 C 3,3 C 66 % 1030,4 hPa 0,0 l/m 0 min 0 min 0 W/m 0,0 km/h (0 Bft) 97,87 %
22.03.2022 21:50 9,9 C 7,8 C 3,3 C 65 % 1030,4 hPa 0,0 l/m 0 min 0 min 0 W/m 0,0 km/h (0 Bft) 95,74 %
22.03.2022 21:52 9,8 C 7,8 C 3,3 C 65 % 1030,4 hPa 0,0 l/m 0 min 0 min 0 W/m 0,0 km/h (0 Bft) 95,74 %
22.03.2022 21:54 9,8 C 7,8 C 3,3 C 64 % 1030,4 hPa 0,0 l/m 0 min 0 min 0 W/m 0,0 km/h (0 Bft) 95,74 %
22.03.2022 21:56 9,7 C 7,8 C 3,3 C 65 % 1030,4 hPa 0,0 l/m 0 min 0 min 0 W/m 0,0 km/h (0 Bft) 93,62 %
22.03.2022 21:58 9,7 C 7,8 C 3,3 C 64 % 1030,4 hPa 0,0 l/m 0 min 0 min 0 W/m 0,0 km/h (0 Bft) 95,74 %
22.03.2022 22:00 9,6 C 7,8 C 3,3 C 64 % 1030,4 hPa 0,0 l/m 0 min 0 min 0 W/m 0,0 km/h (0 Bft) 95,74 %
22.03.2022 22:02 9,6 C 7,8 C 3,3 C 64 % 1030,4 hPa 0,0 l/m 0 min 0 min 0 W/m 0,0 km/h (0 Bft) 95,65 %
22.03.2022 22:04 9,6 C 7,8 C 3,3 C 65 % 1030,5 hPa 0,0 l/m 0 min 0 min 0 W/m 0,0 km/h (0 Bft) 95,74 %
22.03.2022 22:06 9,5 C 7,8 C 3,3 C 66 % 1030,4 hPa 0,0 l/m 0 min 0 min 0 W/m 0,0 km/h (0 Bft) 95,74 %
22.03.2022 22:08 9,5 C 7,8 C 3,3 C 66 % 1030,4 hPa 0,0 l/m 0 min 0 min 0 W/m 0,0 km/h (0 Bft) 95,74 %
22.03.2022 22:10 9,4 C 7,8 C 3,3 C 66 % 1030,5 hPa 0,0 l/m 0 min 0 min 0 W/m 0,0 km/h (0 Bft) 95,74 %
22.03.2022 22:12 9,4 C 7,8 C 3,3 C 66 % 1030,5 hPa 0,0 l/m 0 min 0 min 0 W/m 0,0 km/h (0 Bft) 95,74 %
22.03.2022 22:14 9,3 C 7,2 C 3,3 C 66 % 1030,5 hPa 0,0 l/m 0 min 0 min 0 W/m 0,0 km/h (0 Bft) 91,30 %
22.03.2022 22:16 9,3 C 7,2 C 3,3 C 66 % 1030,5 hPa 0,0 l/m 0 min 0 min 0 W/m 0,0 km/h (0 Bft) 93,62 %
22.03.2022 22:18 9,2 C 7,2 C 3,3 C 67 % 1030,5 hPa 0,0 l/m 0 min 0 min 0 W/m 0,0 km/h (0 Bft) 97,83 %
22.03.2022 22:20 9,2 C 7,2 C 2,8 C 66 % 1030,5 hPa 0,0 l/m 0 min 0 min 0 W/m 0,0 km/h (0 Bft) 97,87 %
22.03.2022 22:22 9,1 C 7,2 C 2,8 C 66 % 1030,5 hPa 0,0 l/m 0 min 0 min 0 W/m 0,0 km/h (0 Bft) 97,87 %
22.03.2022 22:24 9,1 C 7,2 C 2,8 C 66 % 1030,4 hPa 0,0 l/m 0 min 0 min 0 W/m 0,0 km/h (0 Bft) 95,74 %
22.03.2022 22:26 9,1 C 7,2 C 2,8 C 66 % 1030,5 hPa 0,0 l/m 0 min 0 min 0 W/m 0,0 km/h (0 Bft) 95,65 %
22.03.2022 22:28 9,0 C 7,2 C 2,8 C 66 % 1030,4 hPa 0,0 l/m 0 min 0 min 0 W/m 0,0 km/h (0 Bft) 95,74 %
22.03.2022 22:30 8,9 C 7,2 C 2,8 C 65 % 1030,4 hPa 0,0 l/m 0 min 0 min 0 W/m 0,0 km/h (0 Bft) 97,87 %
22.03.2022 22:32 8,9 C 7,2 C 2,8 C 65 % 1030,5 hPa 0,0 l/m 0 min 0 min 0 W/m 0,0 km/h (0 Bft) 95,74 %
22.03.2022 22:34 8,8 C 7,2 C 2,8 C 66 % 1030,5 hPa 0,0 l/m 0 min 0 min 0 W/m 0,0 km/h (0 Bft) 97,87 %
22.03.2022 22:36 8,8 C 7,2 C 2,8 C 66 % 1030,5 hPa 0,0 l/m 0 min 0 min 0 W/m 0,0 km/h (0 Bft) 97,83 %
22.03.2022 22:38 8,8 C 7,2 C 2,8 C 66 % 1030,4 hPa 0,0 l/m 0 min 0 min 0 W/m 0,0 km/h (0 Bft) 100,00 %
22.03.2022 22:40 8,7 C 7,2 C 2,8 C 66 % 1030,4 hPa 0,0 l/m 0 min 0 min 0 W/m 0,0 km/h (0 Bft) 100,00 %
22.03.2022 22:42 8,7 C 7,2 C 2,8 C 66 % 1030,5 hPa 0,0 l/m 0 min 0 min 0 W/m 0,0 km/h (0 Bft) 97,87 %
22.03.2022 22:44 8,7 C 7,2 C 2,8 C 66 % 1030,5 hPa 0,0 l/m 0 min 0 min 0 W/m 0,0 km/h (0 Bft) 100,00 %
22.03.2022 22:46 8,6 C 7,2 C 2,8 C 66 % 1030,5 hPa 0,0 l/m 0 min 0 min 0 W/m 0,0 km/h (0 Bft) 97,87 %
22.03.2022 22:48 8,6 C 7,2 C 2,8 C 66 % 1030,5 hPa 0,0 l/m 0 min 0 min 0 W/m 0,0 km/h (0 Bft) 100,00 %
22.03.2022 22:50 8,5 C 7,2 C 2,8 C 66 % 1030,5 hPa 0,0 l/m 0 min 0 min 0 W/m 0,0 km/h (0 Bft) 100,00 %
22.03.2022 22:52 8,5 C 7,2 C 2,8 C 66 % 1030,5 hPa 0,0 l/m 0 min 0 min 0 W/m 0,0 km/h (0 Bft) 100,00 %
22.03.2022 22:54 8,4 C 7,2 C 2,8 C 66 % 1030,5 hPa 0,0 l/m 0 min 0 min 0 W/m 0,0 km/h (0 Bft) 97,87 %
22.03.2022 22:56 8,4 C 7,2 C 2,8 C 67 % 1030,5 hPa 0,0 l/m 0 min 0 min 0 W/m 0,0 km/h (0 Bft) 100,00 %
22.03.2022 22:58 8,4 C 6,7 C 2,8 C 67 % 1030,5 hPa 0,0 l/m 0 min 0 min 0 W/m 0,0 km/h (0 Bft) 100,00 %
22.03.2022 23:00 8,3 C 7,2 C 2,8 C 66 % 1030,5 hPa 0,0 l/m 0 min 0 min 0 W/m 0,0 km/h (0 Bft) 97,87 %
22.03.2022 23:02 8,3 C 7,2 C 2,8 C 66 % 1030,5 hPa 0,0 l/m 0 min 0 min 0 W/m 0,0 km/h (0 Bft) 97,83 %
22.03.2022 23:04 8,3 C 6,7 C 2,8 C 66 % 1030,5 hPa 0,0 l/m 0 min 0 min 0 W/m 0,0 km/h (0 Bft) 97,87 %
22.03.2022 23:06 8,2 C 6,7 C 2,8 C 66 % 1030,4 hPa 0,0 l/m 0 min 0 min 0 W/m 0,0 km/h (0 Bft) 97,87 %
22.03.2022 23:08 8,2 C 6,7 C 2,8 C 67 % 1030,4 hPa 0,0 l/m 0 min 0 min 0 W/m 0,0 km/h (0 Bft) 97,87 %
22.03.2022 23:10 8,2 C 6,7 C 2,8 C 66 % 1030,4 hPa 0,0 l/m 0 min 0 min 0 W/m 0,0 km/h (0 Bft) 97,87 %
22.03.2022 23:12 8,1 C 6,7 C 2,8 C 66 % 1030,4 hPa 0,0 l/m 0 min 0 min 0 W/m 0,0 km/h (0 Bft) 97,83 %
22.03.2022 23:14 8,1 C 6,7 C 2,2 C 66 % 1030,4 hPa 0,0 l/m 0 min 0 min 0 W/m 0,0 km/h (0 Bft) 97,87 %
22.03.2022 23:16 8,1 C 6,7 C 2,2 C 66 % 1030,4 hPa 0,0 l/m 0 min 0 min 0 W/m 0,0 km/h (0 Bft) 97,87 %
22.03.2022 23:18 8,0 C 6,7 C 2,2 C 66 % 1030,4 hPa 0,0 l/m 0 min 0 min 0 W/m 0,0 km/h (0 Bft) 97,87 %
22.03.2022 23:20 8,0 C 6,7 C 2,8 C 66 % 1030,4 hPa 0,0 l/m 0 min 0 min 0 W/m 0,0 km/h (0 Bft) 97,87 %
22.03.2022 23:22 7,9 C 6,7 C 2,2 C 66 % 1030,4 hPa 0,0 l/m 0 min 0 min 0 W/m 0,0 km/h (0 Bft) 97,87 %
22.03.2022 23:24 7,9 C 6,7 C 2,2 C 66 % 1030,3 hPa 0,0 l/m 0 min 0 min 0 W/m 0,0 km/h (0 Bft) 95,65 %
22.03.2022 23:26 7,9 C 6,7 C 2,2 C 66 % 1030,4 hPa 0,0 l/m 0 min 0 min 0 W/m 0,0 km/h (0 Bft) 97,87 %
22.03.2022 23:28 7,8 C 6,7 C 2,2 C 66 % 1030,4 hPa 0,0 l/m 0 min 0 min 0 W/m 0,0 km/h (0 Bft) 97,87 %
22.03.2022 23:30 7,8 C 6,7 C 2,2 C 66 % 1030,4 hPa 0,0 l/m 0 min 0 min 0 W/m 0,0 km/h (0 Bft) 100,00 %
22.03.2022 23:32 7,8 C 6,7 C 2,2 C 66 % 1030,4 hPa 0,0 l/m 0 min 0 min 0 W/m 0,0 km/h (0 Bft) 100,00 %
22.03.2022 23:34 7,7 C 6,7 C 2,2 C 66 % 1030,4 hPa 0,0 l/m 0 min 0 min 0 W/m 0,0 km/h (0 Bft) 97,87 %
22.03.2022 23:36 7,7 C 6,7 C 2,2 C 66 % 1030,3 hPa 0,0 l/m 0 min 0 min 0 W/m 0,0 km/h (0 Bft) 100,00 %
22.03.2022 23:38 7,7 C 6,7 C 2,2 C 66 % 1030,3 hPa 0,0 l/m 0 min 0 min 0 W/m 0,0 km/h (0 Bft) 95,74 %
22.03.2022 23:40 7,7 C 6,1 C 2,2 C 66 % 1030,4 hPa 0,0 l/m 0 min 0 min 0 W/m 0,0 km/h (0 Bft) 97,87 %
22.03.2022 23:42 7,6 C 6,1 C 2,2 C 66 % 1030,3 hPa 0,0 l/m 0 min 0 min 0 W/m 0,0 km/h (0 Bft) 97,87 %
22.03.2022 23:44 7,6 C 6,1 C 2,2 C 66 % 1030,3 hPa 0,0 l/m 0 min 0 min 0 W/m 0,0 km/h (0 Bft) 95,74 %
22.03.2022 23:46 7,6 C 6,1 C 2,2 C 67 % 1030,3 hPa 0,0 l/m 0 min 0 min 0 W/m 0,0 km/h (0 Bft) 91,49 %
22.03.2022 23:48 7,6 C 6,1 C 2,2 C 67 % 1030,3 hPa 0,0 l/m 0 min 0 min 0 W/m 0,0 km/h (0 Bft) 97,83 %
22.03.2022 23:50 7,5 C 6,1 C 2,2 C 67 % 1030,3 hPa 0,0 l/m 0 min 0 min 0 W/m 0,0 km/h (0 Bft) 97,87 %
22.03.2022 23:52 7,5 C 6,1 C 2,2 C 67 % 1030,3 hPa 0,0 l/m 0 min 0 min 0 W/m 0,0 km/h (0 Bft) 94,29 %
22.03.2022 23:54 7,4 C 6,1 C 2,2 C 67 % 1030,3 hPa 0,0 l/m 0 min 0 min 0 W/m 0,0 km/h (0 Bft) 96,61 %
22.03.2022 23:56 7,4 C 6,1 C 1,7 C 67 % 1030,4 hPa 0,0 l/m 0 min 0 min 0 W/m 0,0 km/h (0 Bft) 97,87 %
22.03.2022 23:58 7,4 C 6,1 C 2,2 C 68 % 1030,4 hPa 0,0 l/m 0 min 0 min 0 W/m 0,0 km/h (0 Bft) 97,87 %
_ Min-Zeit 06:52 06:32 23:56 18:18 16:56 - - - - 18:36 04:38
Minimum _ 7,3 C 6,1 C 1,7 C 34 % 1029,3 hPa - - - - 0,0 km/h (0 Bft) 47,62 %
_ Max-Zeit 16:02 13:54 11:28 00:00 09:16 00:00 12:08 00:00 13:08 17:12 00:30
Maximum _ 21,2 C 30,0 C 20,0 C 71 % 1032,7 hPa 0,0 l/m 4 min 0 min 682 W/m 22,5 km/h
S (4 Bft)
100,00 %
Durchschnitt _ 13,2 C 14,3 C 8,6 C 55 % 1031,1 hPa #0,0 l/m #9:08 h #0 min. 365 W/m 7,6 km/h (2 Bft) 97,48 %
© 2022 W. Hausmann